<?xml version="1.0" encoding="UTF-8" standalone="no" ?><gpx xmlns="http://www.topografix.com/GPX/1/1" xmlns:gpxx="http://www.garmin.com/xmlschemas/GpxExtensions/v3" xmlns:wptx1="http://www.garmin.com/xmlschemas/WaypointExtension/v1" xmlns:gpxtpx="http://www.garmin.com/xmlschemas/TrackPointExtension/v1" creator="GuideVTT.com" version="1.1" xmlns:xsi="http://www.w3.org/2001/XMLSchema-instance" xsi:schemaLocation="http://www.topografix.com/GPX/1/1 http://www.topografix.com/GPX/1/1/gpx.xsd http://www.garmin.com/xmlschemas/GpxExtensions/v3 http://www8.garmin.com/xmlschemas/GpxExtensionsv3.xsd http://www.garmin.com/xmlschemas/WaypointExtension/v1 http://www8.garmin.com/xmlschemas/WaypointExtensionv1.xsd http://www.garmin.com/xmlschemas/TrackPointExtension/v1 http://www.garmin.com/xmlschemas/TrackPointExtensionv1.xsd">
<metadata><link href="http://www.garmin.com"><text>Garmin International</text></link><time>2013-06-22T15:13:50Z</time></metadata>
<trk><name>2021-09-06_1129__20210906_1129.gpx</name><extensions><gpxx:TrackExtension><gpxx:DisplayColor>Cyan</gpxx:DisplayColor></gpxx:TrackExtension></extensions><trkseg>
<trkpt lat="42.4995135" lon="2.7520275"><ele></ele><time>2022-6-4T7:26:17Z</time></trkpt>
<trkpt lat="42.4994579" lon="2.7517855"><ele></ele><time>2022-6-4T7:26:20Z</time></trkpt>
<trkpt lat="42.4995700" lon="2.7519900"><ele></ele><time>2022-6-4T7:26:23Z</time></trkpt>
<trkpt lat="42.4994082" lon="2.7518504"><ele></ele><time>2022-6-4T7:26:26Z</time></trkpt>
<trkpt lat="42.4992868" lon="2.7516655"><ele></ele><time>2022-6-4T7:26:29Z</time></trkpt>
<trkpt lat="42.4992280" lon="2.7514310"><ele></ele><time>2022-6-4T7:26:32Z</time></trkpt>
<trkpt lat="42.4991301" lon="2.7511842"><ele></ele><time>2022-6-4T7:26:35Z</time></trkpt>
<trkpt lat="42.4990302" lon="2.7509702"><ele></ele><time>2022-6-4T7:26:38Z</time></trkpt>
<trkpt lat="42.4989187" lon="2.7507547"><ele></ele><time>2022-6-4T7:26:41Z</time></trkpt>
<trkpt lat="42.4988023" lon="2.7505606"><ele></ele><time>2022-6-4T7:26:44Z</time></trkpt>
<trkpt lat="42.4986813" lon="2.7503673"><ele></ele><time>2022-6-4T7:26:47Z</time></trkpt>
<trkpt lat="42.4985711" lon="2.7501620"><ele></ele><time>2022-6-4T7:26:50Z</time></trkpt>
<trkpt lat="42.4984529" lon="2.7499715"><ele></ele><time>2022-6-4T7:26:53Z</time></trkpt>
<trkpt lat="42.4983399" lon="2.7497757"><ele></ele><time>2022-6-4T7:26:56Z</time></trkpt>
<trkpt lat="42.4982118" lon="2.7495734"><ele></ele><time>2022-6-4T7:26:59Z</time></trkpt>
<trkpt lat="42.4981447" lon="2.7493335"><ele></ele><time>2022-6-4T7:27:2Z</time></trkpt>
<trkpt lat="42.4983127" lon="2.7491771"><ele></ele><time>2022-6-4T7:27:5Z</time></trkpt>
<trkpt lat="42.4985092" lon="2.7490917"><ele></ele><time>2022-6-4T7:27:8Z</time></trkpt>
<trkpt lat="42.4985392" lon="2.7488191"><ele></ele><time>2022-6-4T7:27:11Z</time></trkpt>
<trkpt lat="42.4985211" lon="2.7485616"><ele></ele><time>2022-6-4T7:27:14Z</time></trkpt>
<trkpt lat="42.4985369" lon="2.7483106"><ele></ele><time>2022-6-4T7:27:17Z</time></trkpt>
<trkpt lat="42.4984678" lon="2.7480567"><ele></ele><time>2022-6-4T7:27:20Z</time></trkpt>
<trkpt lat="42.4984031" lon="2.7477960"><ele></ele><time>2022-6-4T7:27:23Z</time></trkpt>
<trkpt lat="42.4982804" lon="2.7475778"><ele></ele><time>2022-6-4T7:27:26Z</time></trkpt>
<trkpt lat="42.4981147" lon="2.7474147"><ele></ele><time>2022-6-4T7:27:29Z</time></trkpt>
<trkpt lat="42.4980135" lon="2.7471715"><ele></ele><time>2022-6-4T7:27:32Z</time></trkpt>
<trkpt lat="42.4979634" lon="2.7469030"><ele></ele><time>2022-6-4T7:27:35Z</time></trkpt>
<trkpt lat="42.4979517" lon="2.7466159"><ele></ele><time>2022-6-4T7:27:38Z</time></trkpt>
<trkpt lat="42.4979820" lon="2.7463361"><ele></ele><time>2022-6-4T7:27:41Z</time></trkpt>
<trkpt lat="42.4980418" lon="2.7460872"><ele></ele><time>2022-6-4T7:27:44Z</time></trkpt>
<trkpt lat="42.4982113" lon="2.7462252"><ele></ele><time>2022-6-4T7:27:47Z</time></trkpt>
<trkpt lat="42.4983202" lon="2.7464378"><ele></ele><time>2022-6-4T7:27:50Z</time></trkpt>
<trkpt lat="42.4984852" lon="2.7465613"><ele></ele><time>2022-6-4T7:27:53Z</time></trkpt>
<trkpt lat="42.4986418" lon="2.7467002"><ele></ele><time>2022-6-4T7:27:56Z</time></trkpt>
<trkpt lat="42.4987986" lon="2.7468571"><ele></ele><time>2022-6-4T7:27:59Z</time></trkpt>
<trkpt lat="42.4989843" lon="2.7469577"><ele></ele><time>2022-6-4T7:28:2Z</time></trkpt>
<trkpt lat="42.4991900" lon="2.7469172"><ele></ele><time>2022-6-4T7:28:5Z</time></trkpt>
<trkpt lat="42.4993952" lon="2.7468908"><ele></ele><time>2022-6-4T7:28:8Z</time></trkpt>
<trkpt lat="42.4995963" lon="2.7469627"><ele></ele><time>2022-6-4T7:28:11Z</time></trkpt>
<trkpt lat="42.4997690" lon="2.7471324"><ele></ele><time>2022-6-4T7:28:14Z</time></trkpt>
<trkpt lat="42.4998829" lon="2.7473344"><ele></ele><time>2022-6-4T7:28:17Z</time></trkpt>
<trkpt lat="42.4999993" lon="2.7475440"><ele></ele><time>2022-6-4T7:28:20Z</time></trkpt>
<trkpt lat="42.5001222" lon="2.7477564"><ele></ele><time>2022-6-4T7:28:23Z</time></trkpt>
<trkpt lat="42.5002422" lon="2.7479630"><ele></ele><time>2022-6-4T7:28:26Z</time></trkpt>
<trkpt lat="42.5003674" lon="2.7481843"><ele></ele><time>2022-6-4T7:28:29Z</time></trkpt>
<trkpt lat="42.5004892" lon="2.7484083"><ele></ele><time>2022-6-4T7:28:32Z</time></trkpt>
<trkpt lat="42.5006082" lon="2.7486219"><ele></ele><time>2022-6-4T7:28:35Z</time></trkpt>
<trkpt lat="42.5007286" lon="2.7488357"><ele></ele><time>2022-6-4T7:28:38Z</time></trkpt>
<trkpt lat="42.5008424" lon="2.7490313"><ele></ele><time>2022-6-4T7:28:41Z</time></trkpt>
<trkpt lat="42.5009867" lon="2.7492391"><ele></ele><time>2022-6-4T7:28:44Z</time></trkpt>
<trkpt lat="42.5011203" lon="2.7494304"><ele></ele><time>2022-6-4T7:28:47Z</time></trkpt>
<trkpt lat="42.5012222" lon="2.7496634"><ele></ele><time>2022-6-4T7:28:50Z</time></trkpt>
<trkpt lat="42.5012843" lon="2.7499379"><ele></ele><time>2022-6-4T7:28:53Z</time></trkpt>
<trkpt lat="42.5013300" lon="2.7502126"><ele></ele><time>2022-6-4T7:28:56Z</time></trkpt>
<trkpt lat="42.5013772" lon="2.7504928"><ele></ele><time>2022-6-4T7:28:59Z</time></trkpt>
<trkpt lat="42.5014253" lon="2.7507602"><ele></ele><time>2022-6-4T7:29:2Z</time></trkpt>
<trkpt lat="42.5015075" lon="2.7510111"><ele></ele><time>2022-6-4T7:29:5Z</time></trkpt>
<trkpt lat="42.5015922" lon="2.7512508"><ele></ele><time>2022-6-4T7:29:8Z</time></trkpt>
<trkpt lat="42.5017010" lon="2.7514608"><ele></ele><time>2022-6-4T7:29:11Z</time></trkpt>
<trkpt lat="42.5018258" lon="2.7516829"><ele></ele><time>2022-6-4T7:29:14Z</time></trkpt>
<trkpt lat="42.5019600" lon="2.7518665"><ele></ele><time>2022-6-4T7:29:17Z</time></trkpt>
<trkpt lat="42.5021163" lon="2.7520682"><ele></ele><time>2022-6-4T7:29:20Z</time></trkpt>
<trkpt lat="42.5022581" lon="2.7522978"><ele></ele><time>2022-6-4T7:29:23Z</time></trkpt>
<trkpt lat="42.5023982" lon="2.7525357"><ele></ele><time>2022-6-4T7:29:26Z</time></trkpt>
<trkpt lat="42.5025165" lon="2.7527323"><ele></ele><time>2022-6-4T7:29:29Z</time></trkpt>
<trkpt lat="42.5026268" lon="2.7529350"><ele></ele><time>2022-6-4T7:29:32Z</time></trkpt>
<trkpt lat="42.5027252" lon="2.7531550"><ele></ele><time>2022-6-4T7:29:35Z</time></trkpt>
<trkpt lat="42.5028236" lon="2.7533752"><ele></ele><time>2022-6-4T7:29:38Z</time></trkpt>
<trkpt lat="42.5029395" lon="2.7536247"><ele></ele><time>2022-6-4T7:29:41Z</time></trkpt>
<trkpt lat="42.5030536" lon="2.7538899"><ele></ele><time>2022-6-4T7:29:44Z</time></trkpt>
<trkpt lat="42.5031166" lon="2.7541240"><ele></ele><time>2022-6-4T7:29:47Z</time></trkpt>
<trkpt lat="42.5031749" lon="2.7543770"><ele></ele><time>2022-6-4T7:29:50Z</time></trkpt>
<trkpt lat="42.5032482" lon="2.7546396"><ele></ele><time>2022-6-4T7:29:53Z</time></trkpt>
<trkpt lat="42.5033342" lon="2.7548917"><ele></ele><time>2022-6-4T7:29:56Z</time></trkpt>
<trkpt lat="42.5034394" lon="2.7551463"><ele></ele><time>2022-6-4T7:29:59Z</time></trkpt>
<trkpt lat="42.5035496" lon="2.7553841"><ele></ele><time>2022-6-4T7:30:2Z</time></trkpt>
<trkpt lat="42.5036678" lon="2.7556136"><ele></ele><time>2022-6-4T7:30:5Z</time></trkpt>
<trkpt lat="42.5037603" lon="2.7558558"><ele></ele><time>2022-6-4T7:30:8Z</time></trkpt>
<trkpt lat="42.5038479" lon="2.7560970"><ele></ele><time>2022-6-4T7:30:11Z</time></trkpt>
<trkpt lat="42.5039313" lon="2.7563461"><ele></ele><time>2022-6-4T7:30:14Z</time></trkpt>
<trkpt lat="42.5040104" lon="2.7565837"><ele></ele><time>2022-6-4T7:30:17Z</time></trkpt>
<trkpt lat="42.5041269" lon="2.7568497"><ele></ele><time>2022-6-4T7:30:20Z</time></trkpt>
<trkpt lat="42.5042581" lon="2.7570369"><ele></ele><time>2022-6-4T7:30:23Z</time></trkpt>
<trkpt lat="42.5043853" lon="2.7572263"><ele></ele><time>2022-6-4T7:30:26Z</time></trkpt>
<trkpt lat="42.5044987" lon="2.7574206"><ele></ele><time>2022-6-4T7:30:29Z</time></trkpt>
<trkpt lat="42.5046385" lon="2.7576618"><ele></ele><time>2022-6-4T7:30:32Z</time></trkpt>
<trkpt lat="42.5047784" lon="2.7578768"><ele></ele><time>2022-6-4T7:30:35Z</time></trkpt>
<trkpt lat="42.5048956" lon="2.7580839"><ele></ele><time>2022-6-4T7:30:38Z</time></trkpt>
<trkpt lat="42.5050313" lon="2.7583144"><ele></ele><time>2022-6-4T7:30:41Z</time></trkpt>
<trkpt lat="42.5051664" lon="2.7584885"><ele></ele><time>2022-6-4T7:30:44Z</time></trkpt>
<trkpt lat="42.5053063" lon="2.7586703"><ele></ele><time>2022-6-4T7:30:47Z</time></trkpt>
<trkpt lat="42.5054348" lon="2.7588521"><ele></ele><time>2022-6-4T7:30:50Z</time></trkpt>
<trkpt lat="42.5055683" lon="2.7590217"><ele></ele><time>2022-6-4T7:30:53Z</time></trkpt>
<trkpt lat="42.5057136" lon="2.7591984"><ele></ele><time>2022-6-4T7:30:56Z</time></trkpt>
<trkpt lat="42.5058496" lon="2.7593759"><ele></ele><time>2022-6-4T7:30:59Z</time></trkpt>
<trkpt lat="42.5059870" lon="2.7595625"><ele></ele><time>2022-6-4T7:31:2Z</time></trkpt>
<trkpt lat="42.5061175" lon="2.7597697"><ele></ele><time>2022-6-4T7:31:5Z</time></trkpt>
<trkpt lat="42.5062333" lon="2.7599730"><ele></ele><time>2022-6-4T7:31:8Z</time></trkpt>
<trkpt lat="42.5063703" lon="2.7602036"><ele></ele><time>2022-6-4T7:31:11Z</time></trkpt>
<trkpt lat="42.5064723" lon="2.7604061"><ele></ele><time>2022-6-4T7:31:14Z</time></trkpt>
<trkpt lat="42.5065909" lon="2.7606358"><ele></ele><time>2022-6-4T7:31:17Z</time></trkpt>
<trkpt lat="42.5067127" lon="2.7608655"><ele></ele><time>2022-6-4T7:31:20Z</time></trkpt>
<trkpt lat="42.5068660" lon="2.7610641"><ele></ele><time>2022-6-4T7:31:23Z</time></trkpt>
<trkpt lat="42.5070394" lon="2.7611745"><ele></ele><time>2022-6-4T7:31:26Z</time></trkpt>
<trkpt lat="42.5072338" lon="2.7612827"><ele></ele><time>2022-6-4T7:31:29Z</time></trkpt>
<trkpt lat="42.5073962" lon="2.7613979"><ele></ele><time>2022-6-4T7:31:32Z</time></trkpt>
<trkpt lat="42.5075759" lon="2.7615403"><ele></ele><time>2022-6-4T7:31:35Z</time></trkpt>
<trkpt lat="42.5077482" lon="2.7617069"><ele></ele><time>2022-6-4T7:31:38Z</time></trkpt>
<trkpt lat="42.5078939" lon="2.7619176"><ele></ele><time>2022-6-4T7:31:41Z</time></trkpt>
<trkpt lat="42.5080317" lon="2.7621595"><ele></ele><time>2022-6-4T7:31:44Z</time></trkpt>
<trkpt lat="42.5081789" lon="2.7624058"><ele></ele><time>2022-6-4T7:31:47Z</time></trkpt>
<trkpt lat="42.5083275" lon="2.7626297"><ele></ele><time>2022-6-4T7:31:50Z</time></trkpt>
<trkpt lat="42.5084826" lon="2.7628315"><ele></ele><time>2022-6-4T7:31:53Z</time></trkpt>
<trkpt lat="42.5086324" lon="2.7630297"><ele></ele><time>2022-6-4T7:31:56Z</time></trkpt>
<trkpt lat="42.5087719" lon="2.7632405"><ele></ele><time>2022-6-4T7:31:59Z</time></trkpt>
<trkpt lat="42.5089049" lon="2.7634598"><ele></ele><time>2022-6-4T7:32:2Z</time></trkpt>
<trkpt lat="42.5090589" lon="2.7636696"><ele></ele><time>2022-6-4T7:32:5Z</time></trkpt>
<trkpt lat="42.5092045" lon="2.7639010"><ele></ele><time>2022-6-4T7:32:8Z</time></trkpt>
<trkpt lat="42.5093233" lon="2.7640912"><ele></ele><time>2022-6-4T7:32:11Z</time></trkpt>
<trkpt lat="42.5094412" lon="2.7642917"><ele></ele><time>2022-6-4T7:32:14Z</time></trkpt>
<trkpt lat="42.5095420" lon="2.7645646"><ele></ele><time>2022-6-4T7:32:17Z</time></trkpt>
<trkpt lat="42.5096010" lon="2.7647990"><ele></ele><time>2022-6-4T7:32:20Z</time></trkpt>
<trkpt lat="42.5096686" lon="2.7650841"><ele></ele><time>2022-6-4T7:32:23Z</time></trkpt>
<trkpt lat="42.5097324" lon="2.7653614"><ele></ele><time>2022-6-4T7:32:26Z</time></trkpt>
<trkpt lat="42.5098015" lon="2.7656240"><ele></ele><time>2022-6-4T7:32:29Z</time></trkpt>
<trkpt lat="42.5098685" lon="2.7658708"><ele></ele><time>2022-6-4T7:32:32Z</time></trkpt>
<trkpt lat="42.5099352" lon="2.7661148"><ele></ele><time>2022-6-4T7:32:35Z</time></trkpt>
<trkpt lat="42.5100340" lon="2.7663713"><ele></ele><time>2022-6-4T7:32:38Z</time></trkpt>
<trkpt lat="42.5102210" lon="2.7664127"><ele></ele><time>2022-6-4T7:32:41Z</time></trkpt>
<trkpt lat="42.5103839" lon="2.7662613"><ele></ele><time>2022-6-4T7:32:44Z</time></trkpt>
<trkpt lat="42.5105588" lon="2.7661135"><ele></ele><time>2022-6-4T7:32:47Z</time></trkpt>
<trkpt lat="42.5107263" lon="2.7659728"><ele></ele><time>2022-6-4T7:32:50Z</time></trkpt>
<trkpt lat="42.5108770" lon="2.7658308"><ele></ele><time>2022-6-4T7:32:53Z</time></trkpt>
<trkpt lat="42.5110454" lon="2.7657136"><ele></ele><time>2022-6-4T7:32:56Z</time></trkpt>
<trkpt lat="42.5112295" lon="2.7655786"><ele></ele><time>2022-6-4T7:32:59Z</time></trkpt>
<trkpt lat="42.5113844" lon="2.7654411"><ele></ele><time>2022-6-4T7:33:2Z</time></trkpt>
<trkpt lat="42.5115355" lon="2.7653035"><ele></ele><time>2022-6-4T7:33:5Z</time></trkpt>
<trkpt lat="42.5116990" lon="2.7651851"><ele></ele><time>2022-6-4T7:33:8Z</time></trkpt>
<trkpt lat="42.5118683" lon="2.7650397"><ele></ele><time>2022-6-4T7:33:11Z</time></trkpt>
<trkpt lat="42.5120244" lon="2.7649147"><ele></ele><time>2022-6-4T7:33:14Z</time></trkpt>
<trkpt lat="42.5121969" lon="2.7647752"><ele></ele><time>2022-6-4T7:33:17Z</time></trkpt>
<trkpt lat="42.5123803" lon="2.7647586"><ele></ele><time>2022-6-4T7:33:20Z</time></trkpt>
<trkpt lat="42.5125563" lon="2.7646898"><ele></ele><time>2022-6-4T7:33:23Z</time></trkpt>
<trkpt lat="42.5126782" lon="2.7649013"><ele></ele><time>2022-6-4T7:33:26Z</time></trkpt>
<trkpt lat="42.5127716" lon="2.7651338"><ele></ele><time>2022-6-4T7:33:29Z</time></trkpt>
<trkpt lat="42.5128718" lon="2.7653515"><ele></ele><time>2022-6-4T7:33:32Z</time></trkpt>
<trkpt lat="42.5129628" lon="2.7655638"><ele></ele><time>2022-6-4T7:33:35Z</time></trkpt>
<trkpt lat="42.5130668" lon="2.7657887"><ele></ele><time>2022-6-4T7:33:38Z</time></trkpt>
<trkpt lat="42.5131628" lon="2.7660055"><ele></ele><time>2022-6-4T7:33:41Z</time></trkpt>
<trkpt lat="42.5132602" lon="2.7662267"><ele></ele><time>2022-6-4T7:33:44Z</time></trkpt>
<trkpt lat="42.5133610" lon="2.7664329"><ele></ele><time>2022-6-4T7:33:47Z</time></trkpt>
<trkpt lat="42.5134418" lon="2.7666511"><ele></ele><time>2022-6-4T7:33:50Z</time></trkpt>
<trkpt lat="42.5135558" lon="2.7668776"><ele></ele><time>2022-6-4T7:33:53Z</time></trkpt>
<trkpt lat="42.5136880" lon="2.7671680"><ele></ele><time>2022-6-4T7:33:56Z</time></trkpt>
<trkpt lat="42.5137979" lon="2.7673780"><ele></ele><time>2022-6-4T7:33:59Z</time></trkpt>
<trkpt lat="42.5138652" lon="2.7676602"><ele></ele><time>2022-6-4T7:34:2Z</time></trkpt>
<trkpt lat="42.5139145" lon="2.7679107"><ele></ele><time>2022-6-4T7:34:5Z</time></trkpt>
<trkpt lat="42.5139613" lon="2.7681663"><ele></ele><time>2022-6-4T7:34:8Z</time></trkpt>
<trkpt lat="42.5140537" lon="2.7683917"><ele></ele><time>2022-6-4T7:34:11Z</time></trkpt>
<trkpt lat="42.5141674" lon="2.7686117"><ele></ele><time>2022-6-4T7:34:14Z</time></trkpt>
<trkpt lat="42.5142991" lon="2.7688115"><ele></ele><time>2022-6-4T7:34:17Z</time></trkpt>
<trkpt lat="42.5144555" lon="2.7689688"><ele></ele><time>2022-6-4T7:34:20Z</time></trkpt>
<trkpt lat="42.5146629" lon="2.7690378"><ele></ele><time>2022-6-4T7:34:23Z</time></trkpt>
<trkpt lat="42.5148652" lon="2.7689462"><ele></ele><time>2022-6-4T7:34:26Z</time></trkpt>
<trkpt lat="42.5149691" lon="2.7687233"><ele></ele><time>2022-6-4T7:34:29Z</time></trkpt>
<trkpt lat="42.5149974" lon="2.7684456"><ele></ele><time>2022-6-4T7:34:32Z</time></trkpt>
<trkpt lat="42.5150601" lon="2.7681921"><ele></ele><time>2022-6-4T7:34:35Z</time></trkpt>
<trkpt lat="42.5152244" lon="2.7683701"><ele></ele><time>2022-6-4T7:34:38Z</time></trkpt>
<trkpt lat="42.5153527" lon="2.7685695"><ele></ele><time>2022-6-4T7:34:41Z</time></trkpt>
<trkpt lat="42.5155063" lon="2.7688036"><ele></ele><time>2022-6-4T7:34:44Z</time></trkpt>
<trkpt lat="42.5156345" lon="2.7690201"><ele></ele><time>2022-6-4T7:34:47Z</time></trkpt>
<trkpt lat="42.5157670" lon="2.7692565"><ele></ele><time>2022-6-4T7:34:50Z</time></trkpt>
<trkpt lat="42.5157381" lon="2.7695091"><ele></ele><time>2022-6-4T7:34:53Z</time></trkpt>
<trkpt lat="42.5157348" lon="2.7697895"><ele></ele><time>2022-6-4T7:34:56Z</time></trkpt>
<trkpt lat="42.5158516" lon="2.7699909"><ele></ele><time>2022-6-4T7:34:59Z</time></trkpt>
<trkpt lat="42.5160372" lon="2.7700489"><ele></ele><time>2022-6-4T7:35:2Z</time></trkpt>
<trkpt lat="42.5162109" lon="2.7702101"><ele></ele><time>2022-6-4T7:35:5Z</time></trkpt>
<trkpt lat="42.5163915" lon="2.7703054"><ele></ele><time>2022-6-4T7:35:8Z</time></trkpt>
<trkpt lat="42.5165655" lon="2.7701745"><ele></ele><time>2022-6-4T7:35:11Z</time></trkpt>
<trkpt lat="42.5166277" lon="2.7699398"><ele></ele><time>2022-6-4T7:35:14Z</time></trkpt>
<trkpt lat="42.5167181" lon="2.7696762"><ele></ele><time>2022-6-4T7:35:17Z</time></trkpt>
<trkpt lat="42.5168338" lon="2.7694414"><ele></ele><time>2022-6-4T7:35:20Z</time></trkpt>
<trkpt lat="42.5169844" lon="2.7692590"><ele></ele><time>2022-6-4T7:35:23Z</time></trkpt>
<trkpt lat="42.5171433" lon="2.7691105"><ele></ele><time>2022-6-4T7:35:26Z</time></trkpt>
<trkpt lat="42.5173403" lon="2.7690067"><ele></ele><time>2022-6-4T7:35:29Z</time></trkpt>
<trkpt lat="42.5175327" lon="2.7689785"><ele></ele><time>2022-6-4T7:35:32Z</time></trkpt>
<trkpt lat="42.5177177" lon="2.7689208"><ele></ele><time>2022-6-4T7:35:35Z</time></trkpt>
<trkpt lat="42.5179029" lon="2.7688568"><ele></ele><time>2022-6-4T7:35:38Z</time></trkpt>
<trkpt lat="42.5180891" lon="2.7687849"><ele></ele><time>2022-6-4T7:35:41Z</time></trkpt>
<trkpt lat="42.5182650" lon="2.7687137"><ele></ele><time>2022-6-4T7:35:44Z</time></trkpt>
<trkpt lat="42.5184489" lon="2.7686739"><ele></ele><time>2022-6-4T7:35:47Z</time></trkpt>
<trkpt lat="42.5186472" lon="2.7685811"><ele></ele><time>2022-6-4T7:35:50Z</time></trkpt>
<trkpt lat="42.5187975" lon="2.7684282"><ele></ele><time>2022-6-4T7:35:53Z</time></trkpt>
<trkpt lat="42.5189463" lon="2.7682545"><ele></ele><time>2022-6-4T7:35:56Z</time></trkpt>
<trkpt lat="42.5191008" lon="2.7680835"><ele></ele><time>2022-6-4T7:35:59Z</time></trkpt>
<trkpt lat="42.5192564" lon="2.7679163"><ele></ele><time>2022-6-4T7:36:2Z</time></trkpt>
<trkpt lat="42.5194163" lon="2.7677635"><ele></ele><time>2022-6-4T7:36:5Z</time></trkpt>
<trkpt lat="42.5195779" lon="2.7676285"><ele></ele><time>2022-6-4T7:36:8Z</time></trkpt>
<trkpt lat="42.5196661" lon="2.7673948"><ele></ele><time>2022-6-4T7:36:11Z</time></trkpt>
<trkpt lat="42.5194866" lon="2.7672657"><ele></ele><time>2022-6-4T7:36:14Z</time></trkpt>
<trkpt lat="42.5193003" lon="2.7671883"><ele></ele><time>2022-6-4T7:36:17Z</time></trkpt>
<trkpt lat="42.5191130" lon="2.7672138"><ele></ele><time>2022-6-4T7:36:20Z</time></trkpt>
<trkpt lat="42.5189353" lon="2.7671540"><ele></ele><time>2022-6-4T7:36:23Z</time></trkpt>
<trkpt lat="42.5189385" lon="2.7668798"><ele></ele><time>2022-6-4T7:36:26Z</time></trkpt>
<trkpt lat="42.5189500" lon="2.7666006"><ele></ele><time>2022-6-4T7:36:29Z</time></trkpt>
<trkpt lat="42.5189731" lon="2.7663344"><ele></ele><time>2022-6-4T7:36:32Z</time></trkpt>
<trkpt lat="42.5190264" lon="2.7660954"><ele></ele><time>2022-6-4T7:36:35Z</time></trkpt>
<trkpt lat="42.5190474" lon="2.7658169"><ele></ele><time>2022-6-4T7:36:38Z</time></trkpt>
<trkpt lat="42.5190030" lon="2.7655441"><ele></ele><time>2022-6-4T7:36:41Z</time></trkpt>
<trkpt lat="42.5189579" lon="2.7652793"><ele></ele><time>2022-6-4T7:36:44Z</time></trkpt>
<trkpt lat="42.5189499" lon="2.7649817"><ele></ele><time>2022-6-4T7:36:47Z</time></trkpt>
<trkpt lat="42.5190289" lon="2.7647014"><ele></ele><time>2022-6-4T7:36:50Z</time></trkpt>
<trkpt lat="42.5191209" lon="2.7644574"><ele></ele><time>2022-6-4T7:36:53Z</time></trkpt>
<trkpt lat="42.5191557" lon="2.7642026"><ele></ele><time>2022-6-4T7:36:56Z</time></trkpt>
<trkpt lat="42.5191303" lon="2.7639431"><ele></ele><time>2022-6-4T7:36:59Z</time></trkpt>
<trkpt lat="42.5191041" lon="2.7636879"><ele></ele><time>2022-6-4T7:37:2Z</time></trkpt>
<trkpt lat="42.5190497" lon="2.7634189"><ele></ele><time>2022-6-4T7:37:5Z</time></trkpt>
<trkpt lat="42.5190059" lon="2.7631508"><ele></ele><time>2022-6-4T7:37:8Z</time></trkpt>
<trkpt lat="42.5189163" lon="2.7629314"><ele></ele><time>2022-6-4T7:37:11Z</time></trkpt>
<trkpt lat="42.5187991" lon="2.7627053"><ele></ele><time>2022-6-4T7:37:14Z</time></trkpt>
<trkpt lat="42.5187742" lon="2.7624458"><ele></ele><time>2022-6-4T7:37:17Z</time></trkpt>
<trkpt lat="42.5188104" lon="2.7621973"><ele></ele><time>2022-6-4T7:37:20Z</time></trkpt>
<trkpt lat="42.5189018" lon="2.7619662"><ele></ele><time>2022-6-4T7:37:23Z</time></trkpt>
<trkpt lat="42.5189150" lon="2.7617092"><ele></ele><time>2022-6-4T7:37:26Z</time></trkpt>
<trkpt lat="42.5188594" lon="2.7619536"><ele></ele><time>2022-6-4T7:37:29Z</time></trkpt>
<trkpt lat="42.5187831" lon="2.7617034"><ele></ele><time>2022-6-4T7:37:32Z</time></trkpt>
<trkpt lat="42.5187331" lon="2.7614618"><ele></ele><time>2022-6-4T7:37:35Z</time></trkpt>
<trkpt lat="42.5187323" lon="2.7611944"><ele></ele><time>2022-6-4T7:37:38Z</time></trkpt>
<trkpt lat="42.5186979" lon="2.7609297"><ele></ele><time>2022-6-4T7:37:41Z</time></trkpt>
<trkpt lat="42.5187968" lon="2.7607203"><ele></ele><time>2022-6-4T7:37:44Z</time></trkpt>
<trkpt lat="42.5189046" lon="2.7604990"><ele></ele><time>2022-6-4T7:37:47Z</time></trkpt>
<trkpt lat="42.5190004" lon="2.7602773"><ele></ele><time>2022-6-4T7:37:50Z</time></trkpt>
<trkpt lat="42.5190136" lon="2.7600161"><ele></ele><time>2022-6-4T7:37:53Z</time></trkpt>
<trkpt lat="42.5190148" lon="2.7597621"><ele></ele><time>2022-6-4T7:37:56Z</time></trkpt>
<trkpt lat="42.5189745" lon="2.7595241"><ele></ele><time>2022-6-4T7:37:59Z</time></trkpt>
<trkpt lat="42.5189958" lon="2.7592579"><ele></ele><time>2022-6-4T7:38:2Z</time></trkpt>
<trkpt lat="42.5191667" lon="2.7591711"><ele></ele><time>2022-6-4T7:38:5Z</time></trkpt>
<trkpt lat="42.5193509" lon="2.7590493"><ele></ele><time>2022-6-4T7:38:8Z</time></trkpt>
<trkpt lat="42.5194251" lon="2.7588262"><ele></ele><time>2022-6-4T7:38:11Z</time></trkpt>
<trkpt lat="42.5195342" lon="2.7586135"><ele></ele><time>2022-6-4T7:38:14Z</time></trkpt>
<trkpt lat="42.5196367" lon="2.7583933"><ele></ele><time>2022-6-4T7:38:17Z</time></trkpt>
<trkpt lat="42.5197461" lon="2.7581631"><ele></ele><time>2022-6-4T7:38:20Z</time></trkpt>
<trkpt lat="42.5198601" lon="2.7579630"><ele></ele><time>2022-6-4T7:38:23Z</time></trkpt>
<trkpt lat="42.5200068" lon="2.7577844"><ele></ele><time>2022-6-4T7:38:26Z</time></trkpt>
<trkpt lat="42.5201094" lon="2.7575343"><ele></ele><time>2022-6-4T7:38:29Z</time></trkpt>
<trkpt lat="42.5202012" lon="2.7573209"><ele></ele><time>2022-6-4T7:38:32Z</time></trkpt>
<trkpt lat="42.5200106" lon="2.7574108"><ele></ele><time>2022-6-4T7:38:35Z</time></trkpt>
<trkpt lat="42.5198574" lon="2.7575403"><ele></ele><time>2022-6-4T7:38:38Z</time></trkpt>
<trkpt lat="42.5196789" lon="2.7576691"><ele></ele><time>2022-6-4T7:38:41Z</time></trkpt>
<trkpt lat="42.5195127" lon="2.7577775"><ele></ele><time>2022-6-4T7:38:44Z</time></trkpt>
<trkpt lat="42.5193333" lon="2.7578737"><ele></ele><time>2022-6-4T7:38:47Z</time></trkpt>
<trkpt lat="42.5191498" lon="2.7579025"><ele></ele><time>2022-6-4T7:38:50Z</time></trkpt>
<trkpt lat="42.5192665" lon="2.7576813"><ele></ele><time>2022-6-4T7:38:53Z</time></trkpt>
<trkpt lat="42.5193820" lon="2.7574652"><ele></ele><time>2022-6-4T7:38:56Z</time></trkpt>
<trkpt lat="42.5194668" lon="2.7572155"><ele></ele><time>2022-6-4T7:38:59Z</time></trkpt>
<trkpt lat="42.5195464" lon="2.7569868"><ele></ele><time>2022-6-4T7:39:2Z</time></trkpt>
<trkpt lat="42.5195805" lon="2.7567385"><ele></ele><time>2022-6-4T7:39:5Z</time></trkpt>
<trkpt lat="42.5195808" lon="2.7564849"><ele></ele><time>2022-6-4T7:39:8Z</time></trkpt>
<trkpt lat="42.5195618" lon="2.7562399"><ele></ele><time>2022-6-4T7:39:11Z</time></trkpt>
<trkpt lat="42.5195343" lon="2.7559952"><ele></ele><time>2022-6-4T7:39:14Z</time></trkpt>
<trkpt lat="42.5194537" lon="2.7557306"><ele></ele><time>2022-6-4T7:39:17Z</time></trkpt>
<trkpt lat="42.5193793" lon="2.7554592"><ele></ele><time>2022-6-4T7:39:20Z</time></trkpt>
<trkpt lat="42.5193268" lon="2.7551754"><ele></ele><time>2022-6-4T7:39:23Z</time></trkpt>
<trkpt lat="42.5192601" lon="2.7549122"><ele></ele><time>2022-6-4T7:39:26Z</time></trkpt>
<trkpt lat="42.5191986" lon="2.7546637"><ele></ele><time>2022-6-4T7:39:29Z</time></trkpt>
<trkpt lat="42.5191347" lon="2.7544300"><ele></ele><time>2022-6-4T7:39:32Z</time></trkpt>
<trkpt lat="42.5190695" lon="2.7541894"><ele></ele><time>2022-6-4T7:39:35Z</time></trkpt>
<trkpt lat="42.5190489" lon="2.7539307"><ele></ele><time>2022-6-4T7:39:38Z</time></trkpt>
<trkpt lat="42.5189053" lon="2.7540849"><ele></ele><time>2022-6-4T7:39:41Z</time></trkpt>
<trkpt lat="42.5189706" lon="2.7538534"><ele></ele><time>2022-6-4T7:39:44Z</time></trkpt>
<trkpt lat="42.5189295" lon="2.7535911"><ele></ele><time>2022-6-4T7:39:47Z</time></trkpt>
<trkpt lat="42.5188473" lon="2.7533450"><ele></ele><time>2022-6-4T7:39:50Z</time></trkpt>
<trkpt lat="42.5187277" lon="2.7531401"><ele></ele><time>2022-6-4T7:39:53Z</time></trkpt>
<trkpt lat="42.5185481" lon="2.7531035"><ele></ele><time>2022-6-4T7:39:56Z</time></trkpt>
<trkpt lat="42.5183724" lon="2.7530407"><ele></ele><time>2022-6-4T7:39:59Z</time></trkpt>
<trkpt lat="42.5182016" lon="2.7529178"><ele></ele><time>2022-6-4T7:40:2Z</time></trkpt>
<trkpt lat="42.5180155" lon="2.7528204"><ele></ele><time>2022-6-4T7:40:5Z</time></trkpt>
<trkpt lat="42.5178382" lon="2.7527309"><ele></ele><time>2022-6-4T7:40:8Z</time></trkpt>
<trkpt lat="42.5176642" lon="2.7526345"><ele></ele><time>2022-6-4T7:40:11Z</time></trkpt>
<trkpt lat="42.5174749" lon="2.7525637"><ele></ele><time>2022-6-4T7:40:14Z</time></trkpt>
<trkpt lat="42.5173204" lon="2.7524241"><ele></ele><time>2022-6-4T7:40:17Z</time></trkpt>
<trkpt lat="42.5172487" lon="2.7521719"><ele></ele><time>2022-6-4T7:40:20Z</time></trkpt>
<trkpt lat="42.5171747" lon="2.7519241"><ele></ele><time>2022-6-4T7:40:23Z</time></trkpt>
<trkpt lat="42.5170917" lon="2.7516966"><ele></ele><time>2022-6-4T7:40:26Z</time></trkpt>
<trkpt lat="42.5170606" lon="2.7514300"><ele></ele><time>2022-6-4T7:40:29Z</time></trkpt>
<trkpt lat="42.5170926" lon="2.7511807"><ele></ele><time>2022-6-4T7:40:32Z</time></trkpt>
<trkpt lat="42.5171108" lon="2.7509187"><ele></ele><time>2022-6-4T7:40:35Z</time></trkpt>
<trkpt lat="42.5171405" lon="2.7506715"><ele></ele><time>2022-6-4T7:40:38Z</time></trkpt>
<trkpt lat="42.5171657" lon="2.7504172"><ele></ele><time>2022-6-4T7:40:41Z</time></trkpt>
<trkpt lat="42.5171929" lon="2.7501691"><ele></ele><time>2022-6-4T7:40:44Z</time></trkpt>
<trkpt lat="42.5172203" lon="2.7498813"><ele></ele><time>2022-6-4T7:40:47Z</time></trkpt>
<trkpt lat="42.5172903" lon="2.7496479"><ele></ele><time>2022-6-4T7:40:50Z</time></trkpt>
<trkpt lat="42.5173753" lon="2.7494055"><ele></ele><time>2022-6-4T7:40:53Z</time></trkpt>
<trkpt lat="42.5174950" lon="2.7491807"><ele></ele><time>2022-6-4T7:40:56Z</time></trkpt>
<trkpt lat="42.5176242" lon="2.7489814"><ele></ele><time>2022-6-4T7:40:59Z</time></trkpt>
<trkpt lat="42.5177481" lon="2.7487594"><ele></ele><time>2022-6-4T7:41:2Z</time></trkpt>
<trkpt lat="42.5178691" lon="2.7485498"><ele></ele><time>2022-6-4T7:41:5Z</time></trkpt>
<trkpt lat="42.5179839" lon="2.7483494"><ele></ele><time>2022-6-4T7:41:8Z</time></trkpt>
<trkpt lat="42.5181044" lon="2.7481451"><ele></ele><time>2022-6-4T7:41:11Z</time></trkpt>
<trkpt lat="42.5182392" lon="2.7479426"><ele></ele><time>2022-6-4T7:41:14Z</time></trkpt>
<trkpt lat="42.5183525" lon="2.7477445"><ele></ele><time>2022-6-4T7:41:17Z</time></trkpt>
<trkpt lat="42.5184964" lon="2.7475200"><ele></ele><time>2022-6-4T7:41:20Z</time></trkpt>
<trkpt lat="42.5186708" lon="2.7473414"><ele></ele><time>2022-6-4T7:41:23Z</time></trkpt>
<trkpt lat="42.5188004" lon="2.7471581"><ele></ele><time>2022-6-4T7:41:26Z</time></trkpt>
<trkpt lat="42.5189304" lon="2.7469316"><ele></ele><time>2022-6-4T7:41:29Z</time></trkpt>
<trkpt lat="42.5190692" lon="2.7467491"><ele></ele><time>2022-6-4T7:41:32Z</time></trkpt>
<trkpt lat="42.5192055" lon="2.7465569"><ele></ele><time>2022-6-4T7:41:35Z</time></trkpt>
<trkpt lat="42.5193434" lon="2.7463479"><ele></ele><time>2022-6-4T7:41:38Z</time></trkpt>
<trkpt lat="42.5194590" lon="2.7461535"><ele></ele><time>2022-6-4T7:41:41Z</time></trkpt>
<trkpt lat="42.5195433" lon="2.7459361"><ele></ele><time>2022-6-4T7:41:44Z</time></trkpt>
<trkpt lat="42.5196086" lon="2.7456598"><ele></ele><time>2022-6-4T7:41:47Z</time></trkpt>
<trkpt lat="42.5196585" lon="2.7454075"><ele></ele><time>2022-6-4T7:41:50Z</time></trkpt>
<trkpt lat="42.5196477" lon="2.7451320"><ele></ele><time>2022-6-4T7:41:53Z</time></trkpt>
<trkpt lat="42.5195486" lon="2.7449061"><ele></ele><time>2022-6-4T7:41:56Z</time></trkpt>
<trkpt lat="42.5193729" lon="2.7447840"><ele></ele><time>2022-6-4T7:41:59Z</time></trkpt>
<trkpt lat="42.5191795" lon="2.7446651"><ele></ele><time>2022-6-4T7:42:2Z</time></trkpt>
<trkpt lat="42.5189871" lon="2.7445605"><ele></ele><time>2022-6-4T7:42:5Z</time></trkpt>
<trkpt lat="42.5188102" lon="2.7444517"><ele></ele><time>2022-6-4T7:42:8Z</time></trkpt>
<trkpt lat="42.5188650" lon="2.7441898"><ele></ele><time>2022-6-4T7:42:11Z</time></trkpt>
<trkpt lat="42.5189613" lon="2.7439821"><ele></ele><time>2022-6-4T7:42:14Z</time></trkpt>
<trkpt lat="42.5190300" lon="2.7437324"><ele></ele><time>2022-6-4T7:42:17Z</time></trkpt>
<trkpt lat="42.5190485" lon="2.7434511"><ele></ele><time>2022-6-4T7:42:20Z</time></trkpt>
<trkpt lat="42.5190447" lon="2.7432002"><ele></ele><time>2022-6-4T7:42:23Z</time></trkpt>
<trkpt lat="42.5190565" lon="2.7429501"><ele></ele><time>2022-6-4T7:42:26Z</time></trkpt>
<trkpt lat="42.5190393" lon="2.7427000"><ele></ele><time>2022-6-4T7:42:29Z</time></trkpt>
<trkpt lat="42.5190364" lon="2.7424555"><ele></ele><time>2022-6-4T7:42:32Z</time></trkpt>
<trkpt lat="42.5190555" lon="2.7422079"><ele></ele><time>2022-6-4T7:42:35Z</time></trkpt>
<trkpt lat="42.5190609" lon="2.7419417"><ele></ele><time>2022-6-4T7:42:38Z</time></trkpt>
<trkpt lat="42.5190636" lon="2.7416584"><ele></ele><time>2022-6-4T7:42:41Z</time></trkpt>
<trkpt lat="42.5190700" lon="2.7414094"><ele></ele><time>2022-6-4T7:42:44Z</time></trkpt>
<trkpt lat="42.5190683" lon="2.7411192"><ele></ele><time>2022-6-4T7:42:47Z</time></trkpt>
<trkpt lat="42.5190889" lon="2.7408466"><ele></ele><time>2022-6-4T7:42:50Z</time></trkpt>
<trkpt lat="42.5191205" lon="2.7406063"><ele></ele><time>2022-6-4T7:42:53Z</time></trkpt>
<trkpt lat="42.5191375" lon="2.7403446"><ele></ele><time>2022-6-4T7:42:56Z</time></trkpt>
<trkpt lat="42.5190394" lon="2.7401106"><ele></ele><time>2022-6-4T7:42:59Z</time></trkpt>
<trkpt lat="42.5188653" lon="2.7401827"><ele></ele><time>2022-6-4T7:43:2Z</time></trkpt>
<trkpt lat="42.5188200" lon="2.7404401"><ele></ele><time>2022-6-4T7:43:5Z</time></trkpt>
<trkpt lat="42.5187722" lon="2.7406967"><ele></ele><time>2022-6-4T7:43:8Z</time></trkpt>
<trkpt lat="42.5187212" lon="2.7409463"><ele></ele><time>2022-6-4T7:43:11Z</time></trkpt>
<trkpt lat="42.5186673" lon="2.7411989"><ele></ele><time>2022-6-4T7:43:14Z</time></trkpt>
<trkpt lat="42.5186519" lon="2.7414583"><ele></ele><time>2022-6-4T7:43:17Z</time></trkpt>
<trkpt lat="42.5186103" lon="2.7417034"><ele></ele><time>2022-6-4T7:43:20Z</time></trkpt>
<trkpt lat="42.5185404" lon="2.7419483"><ele></ele><time>2022-6-4T7:43:23Z</time></trkpt>
<trkpt lat="42.5184465" lon="2.7421737"><ele></ele><time>2022-6-4T7:43:26Z</time></trkpt>
<trkpt lat="42.5182485" lon="2.7421963"><ele></ele><time>2022-6-4T7:43:29Z</time></trkpt>
<trkpt lat="42.5180676" lon="2.7421438"><ele></ele><time>2022-6-4T7:43:32Z</time></trkpt>
<trkpt lat="42.5179173" lon="2.7423017"><ele></ele><time>2022-6-4T7:43:35Z</time></trkpt>
<trkpt lat="42.5177593" lon="2.7424430"><ele></ele><time>2022-6-4T7:43:38Z</time></trkpt>
<trkpt lat="42.5176057" lon="2.7425768"><ele></ele><time>2022-6-4T7:43:41Z</time></trkpt>
<trkpt lat="42.5174320" lon="2.7427212"><ele></ele><time>2022-6-4T7:43:44Z</time></trkpt>
<trkpt lat="42.5172623" lon="2.7428416"><ele></ele><time>2022-6-4T7:43:47Z</time></trkpt>
<trkpt lat="42.5170872" lon="2.7429412"><ele></ele><time>2022-6-4T7:43:50Z</time></trkpt>
<trkpt lat="42.5169254" lon="2.7430758"><ele></ele><time>2022-6-4T7:43:53Z</time></trkpt>
<trkpt lat="42.5168112" lon="2.7432797"><ele></ele><time>2022-6-4T7:43:56Z</time></trkpt>
<trkpt lat="42.5167678" lon="2.7435378"><ele></ele><time>2022-6-4T7:43:59Z</time></trkpt>
<trkpt lat="42.5166974" lon="2.7438020"><ele></ele><time>2022-6-4T7:44:2Z</time></trkpt>
<trkpt lat="42.5166350" lon="2.7440815"><ele></ele><time>2022-6-4T7:44:5Z</time></trkpt>
<trkpt lat="42.5164850" lon="2.7442387"><ele></ele><time>2022-6-4T7:44:8Z</time></trkpt>
<trkpt lat="42.5163007" lon="2.7442761"><ele></ele><time>2022-6-4T7:44:11Z</time></trkpt>
<trkpt lat="42.5161184" lon="2.7442347"><ele></ele><time>2022-6-4T7:44:14Z</time></trkpt>
<trkpt lat="42.5159924" lon="2.7440471"><ele></ele><time>2022-6-4T7:44:17Z</time></trkpt>
<trkpt lat="42.5159251" lon="2.7438015"><ele></ele><time>2022-6-4T7:44:20Z</time></trkpt>
<trkpt lat="42.5159601" lon="2.7435489"><ele></ele><time>2022-6-4T7:44:23Z</time></trkpt>
<trkpt lat="42.5159845" lon="2.7432812"><ele></ele><time>2022-6-4T7:44:26Z</time></trkpt>
<trkpt lat="42.5158335" lon="2.7431410"><ele></ele><time>2022-6-4T7:44:29Z</time></trkpt>
<trkpt lat="42.5157110" lon="2.7429443"><ele></ele><time>2022-6-4T7:44:32Z</time></trkpt>
<trkpt lat="42.5156465" lon="2.7426835"><ele></ele><time>2022-6-4T7:44:35Z</time></trkpt>
<trkpt lat="42.5155859" lon="2.7424366"><ele></ele><time>2022-6-4T7:44:38Z</time></trkpt>
<trkpt lat="42.5156688" lon="2.7422179"><ele></ele><time>2022-6-4T7:44:41Z</time></trkpt>
<trkpt lat="42.5157537" lon="2.7419738"><ele></ele><time>2022-6-4T7:44:44Z</time></trkpt>
<trkpt lat="42.5155695" lon="2.7419773"><ele></ele><time>2022-6-4T7:44:47Z</time></trkpt>
<trkpt lat="42.5153975" lon="2.7420895"><ele></ele><time>2022-6-4T7:44:50Z</time></trkpt>
<trkpt lat="42.5152151" lon="2.7422103"><ele></ele><time>2022-6-4T7:44:53Z</time></trkpt>
<trkpt lat="42.5150402" lon="2.7423412"><ele></ele><time>2022-6-4T7:44:56Z</time></trkpt>
<trkpt lat="42.5148729" lon="2.7424949"><ele></ele><time>2022-6-4T7:44:59Z</time></trkpt>
<trkpt lat="42.5146859" lon="2.7426610"><ele></ele><time>2022-6-4T7:45:2Z</time></trkpt>
<trkpt lat="42.5144969" lon="2.7427635"><ele></ele><time>2022-6-4T7:45:5Z</time></trkpt>
<trkpt lat="42.5143125" lon="2.7428780"><ele></ele><time>2022-6-4T7:45:8Z</time></trkpt>
<trkpt lat="42.5141132" lon="2.7429083"><ele></ele><time>2022-6-4T7:45:11Z</time></trkpt>
<trkpt lat="42.5139624" lon="2.7430516"><ele></ele><time>2022-6-4T7:45:14Z</time></trkpt>
<trkpt lat="42.5138329" lon="2.7432497"><ele></ele><time>2022-6-4T7:45:17Z</time></trkpt>
<trkpt lat="42.5136558" lon="2.7433329"><ele></ele><time>2022-6-4T7:45:20Z</time></trkpt>
<trkpt lat="42.5134709" lon="2.7434495"><ele></ele><time>2022-6-4T7:45:23Z</time></trkpt>
<trkpt lat="42.5133079" lon="2.7436165"><ele></ele><time>2022-6-4T7:45:26Z</time></trkpt>
<trkpt lat="42.5131659" lon="2.7437726"><ele></ele><time>2022-6-4T7:45:29Z</time></trkpt>
<trkpt lat="42.5129452" lon="2.7438681"><ele></ele><time>2022-6-4T7:45:32Z</time></trkpt>
<trkpt lat="42.5127677" lon="2.7439948"><ele></ele><time>2022-6-4T7:45:35Z</time></trkpt>
<trkpt lat="42.5125860" lon="2.7441286"><ele></ele><time>2022-6-4T7:45:38Z</time></trkpt>
<trkpt lat="42.5123945" lon="2.7442369"><ele></ele><time>2022-6-4T7:45:41Z</time></trkpt>
<trkpt lat="42.5121998" lon="2.7443611"><ele></ele><time>2022-6-4T7:45:44Z</time></trkpt>
<trkpt lat="42.5120557" lon="2.7445272"><ele></ele><time>2022-6-4T7:45:47Z</time></trkpt>
<trkpt lat="42.5119283" lon="2.7447425"><ele></ele><time>2022-6-4T7:45:50Z</time></trkpt>
<trkpt lat="42.5117547" lon="2.7448239"><ele></ele><time>2022-6-4T7:45:53Z</time></trkpt>
<trkpt lat="42.5116178" lon="2.7449997"><ele></ele><time>2022-6-4T7:45:56Z</time></trkpt>
<trkpt lat="42.5114493" lon="2.7451004"><ele></ele><time>2022-6-4T7:45:59Z</time></trkpt>
<trkpt lat="42.5112727" lon="2.7451521"><ele></ele><time>2022-6-4T7:46:2Z</time></trkpt>
<trkpt lat="42.5112210" lon="2.7453901"><ele></ele><time>2022-6-4T7:46:5Z</time></trkpt>
<trkpt lat="42.5110405" lon="2.7454800"><ele></ele><time>2022-6-4T7:46:8Z</time></trkpt>
<trkpt lat="42.5108594" lon="2.7455954"><ele></ele><time>2022-6-4T7:46:11Z</time></trkpt>
<trkpt lat="42.5106747" lon="2.7456568"><ele></ele><time>2022-6-4T7:46:14Z</time></trkpt>
<trkpt lat="42.5104778" lon="2.7456500"><ele></ele><time>2022-6-4T7:46:17Z</time></trkpt>
<trkpt lat="42.5102965" lon="2.7456154"><ele></ele><time>2022-6-4T7:46:20Z</time></trkpt>
<trkpt lat="42.5101223" lon="2.7455215"><ele></ele><time>2022-6-4T7:46:23Z</time></trkpt>
<trkpt lat="42.5099382" lon="2.7455484"><ele></ele><time>2022-6-4T7:46:26Z</time></trkpt>
<trkpt lat="42.5099161" lon="2.7457998"><ele></ele><time>2022-6-4T7:46:29Z</time></trkpt>
<trkpt lat="42.5097561" lon="2.7459114"><ele></ele><time>2022-6-4T7:46:32Z</time></trkpt>
<trkpt lat="42.5095409" lon="2.7459908"><ele></ele><time>2022-6-4T7:46:35Z</time></trkpt>
<trkpt lat="42.5093467" lon="2.7460143"><ele></ele><time>2022-6-4T7:46:38Z</time></trkpt>
<trkpt lat="42.5091957" lon="2.7461491"><ele></ele><time>2022-6-4T7:46:41Z</time></trkpt>
<trkpt lat="42.5089972" lon="2.7462348"><ele></ele><time>2022-6-4T7:46:44Z</time></trkpt>
<trkpt lat="42.5088354" lon="2.7463555"><ele></ele><time>2022-6-4T7:46:47Z</time></trkpt>
<trkpt lat="42.5086724" lon="2.7464701"><ele></ele><time>2022-6-4T7:46:50Z</time></trkpt>
<trkpt lat="42.5085222" lon="2.7466364"><ele></ele><time>2022-6-4T7:46:53Z</time></trkpt>
<trkpt lat="42.5083883" lon="2.7468325"><ele></ele><time>2022-6-4T7:46:56Z</time></trkpt>
<trkpt lat="42.5082699" lon="2.7470361"><ele></ele><time>2022-6-4T7:46:59Z</time></trkpt>
<trkpt lat="42.5081583" lon="2.7472497"><ele></ele><time>2022-6-4T7:47:2Z</time></trkpt>
<trkpt lat="42.5080150" lon="2.7474445"><ele></ele><time>2022-6-4T7:47:5Z</time></trkpt>
<trkpt lat="42.5078845" lon="2.7476388"><ele></ele><time>2022-6-4T7:47:8Z</time></trkpt>
<trkpt lat="42.5077316" lon="2.7478604"><ele></ele><time>2022-6-4T7:47:11Z</time></trkpt>
<trkpt lat="42.5075526" lon="2.7480521"><ele></ele><time>2022-6-4T7:47:14Z</time></trkpt>
<trkpt lat="42.5073742" lon="2.7482335"><ele></ele><time>2022-6-4T7:47:17Z</time></trkpt>
<trkpt lat="42.5072347" lon="2.7484093"><ele></ele><time>2022-6-4T7:47:20Z</time></trkpt>
<trkpt lat="42.5070869" lon="2.7485978"><ele></ele><time>2022-6-4T7:47:23Z</time></trkpt>
<trkpt lat="42.5069463" lon="2.7488158"><ele></ele><time>2022-6-4T7:47:26Z</time></trkpt>
<trkpt lat="42.5068556" lon="2.7490619"><ele></ele><time>2022-6-4T7:47:29Z</time></trkpt>
<trkpt lat="42.5067538" lon="2.7493101"><ele></ele><time>2022-6-4T7:47:32Z</time></trkpt>
<trkpt lat="42.5066603" lon="2.7495570"><ele></ele><time>2022-6-4T7:47:35Z</time></trkpt>
<trkpt lat="42.5065320" lon="2.7497890"><ele></ele><time>2022-6-4T7:47:38Z</time></trkpt>
<trkpt lat="42.5064389" lon="2.7500274"><ele></ele><time>2022-6-4T7:47:41Z</time></trkpt>
<trkpt lat="42.5062610" lon="2.7499318"><ele></ele><time>2022-6-4T7:47:44Z</time></trkpt>
<trkpt lat="42.5061103" lon="2.7497451"><ele></ele><time>2022-6-4T7:47:47Z</time></trkpt>
<trkpt lat="42.5059513" lon="2.7496139"><ele></ele><time>2022-6-4T7:47:50Z</time></trkpt>
<trkpt lat="42.5057721" lon="2.7494717"><ele></ele><time>2022-6-4T7:47:53Z</time></trkpt>
<trkpt lat="42.5055846" lon="2.7493321"><ele></ele><time>2022-6-4T7:47:56Z</time></trkpt>
<trkpt lat="42.5054060" lon="2.7491859"><ele></ele><time>2022-6-4T7:47:59Z</time></trkpt>
<trkpt lat="42.5052435" lon="2.7490524"><ele></ele><time>2022-6-4T7:48:2Z</time></trkpt>
<trkpt lat="42.5050710" lon="2.7488883"><ele></ele><time>2022-6-4T7:48:5Z</time></trkpt>
<trkpt lat="42.5048916" lon="2.7487215"><ele></ele><time>2022-6-4T7:48:8Z</time></trkpt>
<trkpt lat="42.5047048" lon="2.7485868"><ele></ele><time>2022-6-4T7:48:11Z</time></trkpt>
<trkpt lat="42.5045389" lon="2.7484332"><ele></ele><time>2022-6-4T7:48:14Z</time></trkpt>
<trkpt lat="42.5043959" lon="2.7482649"><ele></ele><time>2022-6-4T7:48:17Z</time></trkpt>
<trkpt lat="42.5042563" lon="2.7480384"><ele></ele><time>2022-6-4T7:48:20Z</time></trkpt>
<trkpt lat="42.5040929" lon="2.7478592"><ele></ele><time>2022-6-4T7:48:23Z</time></trkpt>
<trkpt lat="42.5039023" lon="2.7477450"><ele></ele><time>2022-6-4T7:48:26Z</time></trkpt>
<trkpt lat="42.5036955" lon="2.7476988"><ele></ele><time>2022-6-4T7:48:29Z</time></trkpt>
<trkpt lat="42.5035156" lon="2.7477472"><ele></ele><time>2022-6-4T7:48:32Z</time></trkpt>
<trkpt lat="42.5032961" lon="2.7478021"><ele></ele><time>2022-6-4T7:48:35Z</time></trkpt>
<trkpt lat="42.5031127" lon="2.7477832"><ele></ele><time>2022-6-4T7:48:38Z</time></trkpt>
<trkpt lat="42.5029287" lon="2.7477529"><ele></ele><time>2022-6-4T7:48:41Z</time></trkpt>
<trkpt lat="42.5027505" lon="2.7477123"><ele></ele><time>2022-6-4T7:48:44Z</time></trkpt>
<trkpt lat="42.5025694" lon="2.7476887"><ele></ele><time>2022-6-4T7:48:47Z</time></trkpt>
<trkpt lat="42.5023494" lon="2.7476580"><ele></ele><time>2022-6-4T7:48:50Z</time></trkpt>
<trkpt lat="42.5021666" lon="2.7476149"><ele></ele><time>2022-6-4T7:48:53Z</time></trkpt>
<trkpt lat="42.5019759" lon="2.7475982"><ele></ele><time>2022-6-4T7:48:56Z</time></trkpt>
<trkpt lat="42.5017583" lon="2.7475552"><ele></ele><time>2022-6-4T7:48:59Z</time></trkpt>
<trkpt lat="42.5015794" lon="2.7474953"><ele></ele><time>2022-6-4T7:49:2Z</time></trkpt>
<trkpt lat="42.5014156" lon="2.7473839"><ele></ele><time>2022-6-4T7:49:5Z</time></trkpt>
<trkpt lat="42.5012440" lon="2.7472810"><ele></ele><time>2022-6-4T7:49:8Z</time></trkpt>
<trkpt lat="42.5010721" lon="2.7471758"><ele></ele><time>2022-6-4T7:49:11Z</time></trkpt>
<trkpt lat="42.5008901" lon="2.7471614"><ele></ele><time>2022-6-4T7:49:14Z</time></trkpt>
<trkpt lat="42.5007054" lon="2.7472349"><ele></ele><time>2022-6-4T7:49:17Z</time></trkpt>
<trkpt lat="42.5006273" lon="2.7469914"><ele></ele><time>2022-6-4T7:49:20Z</time></trkpt>
<trkpt lat="42.5005679" lon="2.7467341"><ele></ele><time>2022-6-4T7:49:23Z</time></trkpt>
<trkpt lat="42.5005046" lon="2.7464854"><ele></ele><time>2022-6-4T7:49:26Z</time></trkpt>
<trkpt lat="42.5004425" lon="2.7462300"><ele></ele><time>2022-6-4T7:49:29Z</time></trkpt>
<trkpt lat="42.5003044" lon="2.7460313"><ele></ele><time>2022-6-4T7:49:32Z</time></trkpt>
<trkpt lat="42.5001131" lon="2.7459269"><ele></ele><time>2022-6-4T7:49:35Z</time></trkpt>
<trkpt lat="42.4999374" lon="2.7458495"><ele></ele><time>2022-6-4T7:49:38Z</time></trkpt>
<trkpt lat="42.4997382" lon="2.7458961"><ele></ele><time>2022-6-4T7:49:41Z</time></trkpt>
<trkpt lat="42.4996156" lon="2.7456772"><ele></ele><time>2022-6-4T7:49:44Z</time></trkpt>
<trkpt lat="42.4995232" lon="2.7454581"><ele></ele><time>2022-6-4T7:49:47Z</time></trkpt>
<trkpt lat="42.4994073" lon="2.7452661"><ele></ele><time>2022-6-4T7:49:50Z</time></trkpt>
<trkpt lat="42.4992444" lon="2.7450711"><ele></ele><time>2022-6-4T7:49:53Z</time></trkpt>
<trkpt lat="42.4990579" lon="2.7449586"><ele></ele><time>2022-6-4T7:49:56Z</time></trkpt>
<trkpt lat="42.4988587" lon="2.7448764"><ele></ele><time>2022-6-4T7:49:59Z</time></trkpt>
<trkpt lat="42.4986515" lon="2.7447776"><ele></ele><time>2022-6-4T7:50:2Z</time></trkpt>
<trkpt lat="42.4984522" lon="2.7446693"><ele></ele><time>2022-6-4T7:50:5Z</time></trkpt>
<trkpt lat="42.4982695" lon="2.7447007"><ele></ele><time>2022-6-4T7:50:8Z</time></trkpt>
<trkpt lat="42.4980899" lon="2.7447891"><ele></ele><time>2022-6-4T7:50:11Z</time></trkpt>
<trkpt lat="42.4979407" lon="2.7449353"><ele></ele><time>2022-6-4T7:50:14Z</time></trkpt>
<trkpt lat="42.4977521" lon="2.7449463"><ele></ele><time>2022-6-4T7:50:17Z</time></trkpt>
<trkpt lat="42.4976532" lon="2.7447353"><ele></ele><time>2022-6-4T7:50:20Z</time></trkpt>
<trkpt lat="42.4975285" lon="2.7445008"><ele></ele><time>2022-6-4T7:50:23Z</time></trkpt>
<trkpt lat="42.4974032" lon="2.7443233"><ele></ele><time>2022-6-4T7:50:26Z</time></trkpt>
<trkpt lat="42.4972569" lon="2.7441404"><ele></ele><time>2022-6-4T7:50:29Z</time></trkpt>
<trkpt lat="42.4970846" lon="2.7439397"><ele></ele><time>2022-6-4T7:50:32Z</time></trkpt>
<trkpt lat="42.4969445" lon="2.7437762"><ele></ele><time>2022-6-4T7:50:35Z</time></trkpt>
<trkpt lat="42.4970654" lon="2.7435741"><ele></ele><time>2022-6-4T7:50:38Z</time></trkpt>
<trkpt lat="42.4972304" lon="2.7434611"><ele></ele><time>2022-6-4T7:50:41Z</time></trkpt>
<trkpt lat="42.4974122" lon="2.7433230"><ele></ele><time>2022-6-4T7:50:44Z</time></trkpt>
<trkpt lat="42.4975545" lon="2.7431724"><ele></ele><time>2022-6-4T7:50:47Z</time></trkpt>
<trkpt lat="42.4976992" lon="2.7430056"><ele></ele><time>2022-6-4T7:50:50Z</time></trkpt>
<trkpt lat="42.4978777" lon="2.7429348"><ele></ele><time>2022-6-4T7:50:53Z</time></trkpt>
<trkpt lat="42.4980592" lon="2.7428842"><ele></ele><time>2022-6-4T7:50:56Z</time></trkpt>
<trkpt lat="42.4982583" lon="2.7428498"><ele></ele><time>2022-6-4T7:50:59Z</time></trkpt>
<trkpt lat="42.4984469" lon="2.7428142"><ele></ele><time>2022-6-4T7:51:2Z</time></trkpt>
<trkpt lat="42.4986360" lon="2.7427819"><ele></ele><time>2022-6-4T7:51:5Z</time></trkpt>
<trkpt lat="42.4988337" lon="2.7427382"><ele></ele><time>2022-6-4T7:51:8Z</time></trkpt>
<trkpt lat="42.4990196" lon="2.7427083"><ele></ele><time>2022-6-4T7:51:11Z</time></trkpt>
<trkpt lat="42.4991968" lon="2.7426313"><ele></ele><time>2022-6-4T7:51:14Z</time></trkpt>
<trkpt lat="42.4993984" lon="2.7425477"><ele></ele><time>2022-6-4T7:51:17Z</time></trkpt>
<trkpt lat="42.4995963" lon="2.7424421"><ele></ele><time>2022-6-4T7:51:20Z</time></trkpt>
<trkpt lat="42.4997767" lon="2.7423763"><ele></ele><time>2022-6-4T7:51:23Z</time></trkpt>
<trkpt lat="42.4999660" lon="2.7422649"><ele></ele><time>2022-6-4T7:51:26Z</time></trkpt>
<trkpt lat="42.5001342" lon="2.7421598"><ele></ele><time>2022-6-4T7:51:29Z</time></trkpt>
<trkpt lat="42.5002595" lon="2.7419467"><ele></ele><time>2022-6-4T7:51:32Z</time></trkpt>
<trkpt lat="42.5003669" lon="2.7416861"><ele></ele><time>2022-6-4T7:51:35Z</time></trkpt>
<trkpt lat="42.5005177" lon="2.7414111"><ele></ele><time>2022-6-4T7:51:38Z</time></trkpt>
<trkpt lat="42.5006627" lon="2.7412458"><ele></ele><time>2022-6-4T7:51:41Z</time></trkpt>
<trkpt lat="42.5008465" lon="2.7411214"><ele></ele><time>2022-6-4T7:51:44Z</time></trkpt>
<trkpt lat="42.5010338" lon="2.7410043"><ele></ele><time>2022-6-4T7:51:47Z</time></trkpt>
<trkpt lat="42.5011777" lon="2.7408051"><ele></ele><time>2022-6-4T7:51:50Z</time></trkpt>
<trkpt lat="42.5013028" lon="2.7406190"><ele></ele><time>2022-6-4T7:51:53Z</time></trkpt>
<trkpt lat="42.5012060" lon="2.7403881"><ele></ele><time>2022-6-4T7:51:56Z</time></trkpt>
<trkpt lat="42.5010081" lon="2.7403191"><ele></ele><time>2022-6-4T7:51:59Z</time></trkpt>
<trkpt lat="42.5008212" lon="2.7403763"><ele></ele><time>2022-6-4T7:52:2Z</time></trkpt>
<trkpt lat="42.5006278" lon="2.7404415"><ele></ele><time>2022-6-4T7:52:5Z</time></trkpt>
<trkpt lat="42.5004427" lon="2.7404998"><ele></ele><time>2022-6-4T7:52:8Z</time></trkpt>
<trkpt lat="42.5002625" lon="2.7405006"><ele></ele><time>2022-6-4T7:52:11Z</time></trkpt>
<trkpt lat="42.5000895" lon="2.7405953"><ele></ele><time>2022-6-4T7:52:14Z</time></trkpt>
<trkpt lat="42.4999160" lon="2.7406904"><ele></ele><time>2022-6-4T7:52:17Z</time></trkpt>
<trkpt lat="42.4997269" lon="2.7408039"><ele></ele><time>2022-6-4T7:52:20Z</time></trkpt>
<trkpt lat="42.4995339" lon="2.7408438"><ele></ele><time>2022-6-4T7:52:23Z</time></trkpt>
<trkpt lat="42.4993466" lon="2.7408005"><ele></ele><time>2022-6-4T7:52:26Z</time></trkpt>
<trkpt lat="42.4991662" lon="2.7409096"><ele></ele><time>2022-6-4T7:52:29Z</time></trkpt>
<trkpt lat="42.4989717" lon="2.7410029"><ele></ele><time>2022-6-4T7:52:32Z</time></trkpt>
<trkpt lat="42.4987902" lon="2.7410510"><ele></ele><time>2022-6-4T7:52:35Z</time></trkpt>
<trkpt lat="42.4986146" lon="2.7409687"><ele></ele><time>2022-6-4T7:52:38Z</time></trkpt>
<trkpt lat="42.4985810" lon="2.7407043"><ele></ele><time>2022-6-4T7:52:41Z</time></trkpt>
<trkpt lat="42.4985974" lon="2.7404359"><ele></ele><time>2022-6-4T7:52:44Z</time></trkpt>
<trkpt lat="42.4986266" lon="2.7401684"><ele></ele><time>2022-6-4T7:52:47Z</time></trkpt>
<trkpt lat="42.4986571" lon="2.7398995"><ele></ele><time>2022-6-4T7:52:50Z</time></trkpt>
<trkpt lat="42.4986909" lon="2.7396549"><ele></ele><time>2022-6-4T7:52:53Z</time></trkpt>
<trkpt lat="42.4988528" lon="2.7395035"><ele></ele><time>2022-6-4T7:52:56Z</time></trkpt>
<trkpt lat="42.4990372" lon="2.7394311"><ele></ele><time>2022-6-4T7:52:59Z</time></trkpt>
<trkpt lat="42.4991890" lon="2.7392887"><ele></ele><time>2022-6-4T7:53:2Z</time></trkpt>
<trkpt lat="42.4993602" lon="2.7392038"><ele></ele><time>2022-6-4T7:53:5Z</time></trkpt>
<trkpt lat="42.4995528" lon="2.7392186"><ele></ele><time>2022-6-4T7:53:8Z</time></trkpt>
<trkpt lat="42.4997432" lon="2.7392215"><ele></ele><time>2022-6-4T7:53:11Z</time></trkpt>
<trkpt lat="42.4999216" lon="2.7391754"><ele></ele><time>2022-6-4T7:53:14Z</time></trkpt>
<trkpt lat="42.5001044" lon="2.7390616"><ele></ele><time>2022-6-4T7:53:17Z</time></trkpt>
<trkpt lat="42.5002883" lon="2.7390264"><ele></ele><time>2022-6-4T7:53:20Z</time></trkpt>
<trkpt lat="42.5004920" lon="2.7389859"><ele></ele><time>2022-6-4T7:53:23Z</time></trkpt>
<trkpt lat="42.5006623" lon="2.7389014"><ele></ele><time>2022-6-4T7:53:26Z</time></trkpt>
<trkpt lat="42.5008072" lon="2.7387476"><ele></ele><time>2022-6-4T7:53:29Z</time></trkpt>
<trkpt lat="42.5009198" lon="2.7385565"><ele></ele><time>2022-6-4T7:53:32Z</time></trkpt>
<trkpt lat="42.5010377" lon="2.7383412"><ele></ele><time>2022-6-4T7:53:35Z</time></trkpt>
<trkpt lat="42.5011257" lon="2.7381010"><ele></ele><time>2022-6-4T7:53:38Z</time></trkpt>
<trkpt lat="42.5011545" lon="2.7378442"><ele></ele><time>2022-6-4T7:53:41Z</time></trkpt>
<trkpt lat="42.5011899" lon="2.7375978"><ele></ele><time>2022-6-4T7:53:44Z</time></trkpt>
<trkpt lat="42.5011695" lon="2.7373534"><ele></ele><time>2022-6-4T7:53:47Z</time></trkpt>
<trkpt lat="42.5011191" lon="2.7371168"><ele></ele><time>2022-6-4T7:53:50Z</time></trkpt>
<trkpt lat="42.5012230" lon="2.7368925"><ele></ele><time>2022-6-4T7:53:53Z</time></trkpt>
<trkpt lat="42.5013900" lon="2.7367729"><ele></ele><time>2022-6-4T7:53:56Z</time></trkpt>
<trkpt lat="42.5015486" lon="2.7366061"><ele></ele><time>2022-6-4T7:53:59Z</time></trkpt>
<trkpt lat="42.5016699" lon="2.7364060"><ele></ele><time>2022-6-4T7:54:2Z</time></trkpt>
<trkpt lat="42.5017247" lon="2.7361640"><ele></ele><time>2022-6-4T7:54:5Z</time></trkpt>
<trkpt lat="42.5017673" lon="2.7359259"><ele></ele><time>2022-6-4T7:54:8Z</time></trkpt>
<trkpt lat="42.5017395" lon="2.7356696"><ele></ele><time>2022-6-4T7:54:11Z</time></trkpt>
<trkpt lat="42.5017219" lon="2.7354072"><ele></ele><time>2022-6-4T7:54:14Z</time></trkpt>
<trkpt lat="42.5017736" lon="2.7351596"><ele></ele><time>2022-6-4T7:54:17Z</time></trkpt>
<trkpt lat="42.5018675" lon="2.7349458"><ele></ele><time>2022-6-4T7:54:20Z</time></trkpt>
<trkpt lat="42.5018238" lon="2.7346907"><ele></ele><time>2022-6-4T7:54:23Z</time></trkpt>
<trkpt lat="42.5018985" lon="2.7344382"><ele></ele><time>2022-6-4T7:54:26Z</time></trkpt>
<trkpt lat="42.5019572" lon="2.7342006"><ele></ele><time>2022-6-4T7:54:29Z</time></trkpt>
<trkpt lat="42.5020066" lon="2.7339462"><ele></ele><time>2022-6-4T7:54:32Z</time></trkpt>
<trkpt lat="42.5019653" lon="2.7336879"><ele></ele><time>2022-6-4T7:54:35Z</time></trkpt>
<trkpt lat="42.5019566" lon="2.7334114"><ele></ele><time>2022-6-4T7:54:38Z</time></trkpt>
<trkpt lat="42.5019959" lon="2.7331507"><ele></ele><time>2022-6-4T7:54:41Z</time></trkpt>
<trkpt lat="42.5020986" lon="2.7329010"><ele></ele><time>2022-6-4T7:54:44Z</time></trkpt>
<trkpt lat="42.5022385" lon="2.7327191"><ele></ele><time>2022-6-4T7:54:47Z</time></trkpt>
<trkpt lat="42.5023257" lon="2.7324746"><ele></ele><time>2022-6-4T7:54:50Z</time></trkpt>
<trkpt lat="42.5023633" lon="2.7322263"><ele></ele><time>2022-6-4T7:54:53Z</time></trkpt>
<trkpt lat="42.5024310" lon="2.7319853"><ele></ele><time>2022-6-4T7:54:56Z</time></trkpt>
<trkpt lat="42.5024491" lon="2.7317238"><ele></ele><time>2022-6-4T7:54:59Z</time></trkpt>
<trkpt lat="42.5024402" lon="2.7314489"><ele></ele><time>2022-6-4T7:55:2Z</time></trkpt>
<trkpt lat="42.5024486" lon="2.7311970"><ele></ele><time>2022-6-4T7:55:5Z</time></trkpt>
<trkpt lat="42.5023907" lon="2.7309611"><ele></ele><time>2022-6-4T7:55:8Z</time></trkpt>
<trkpt lat="42.5023026" lon="2.7307013"><ele></ele><time>2022-6-4T7:55:11Z</time></trkpt>
<trkpt lat="42.5021742" lon="2.7304850"><ele></ele><time>2022-6-4T7:55:14Z</time></trkpt>
<trkpt lat="42.5021043" lon="2.7302571"><ele></ele><time>2022-6-4T7:55:17Z</time></trkpt>
<trkpt lat="42.5021107" lon="2.7300048"><ele></ele><time>2022-6-4T7:55:20Z</time></trkpt>
<trkpt lat="42.5021330" lon="2.7297406"><ele></ele><time>2022-6-4T7:55:23Z</time></trkpt>
<trkpt lat="42.5021761" lon="2.7294811"><ele></ele><time>2022-6-4T7:55:26Z</time></trkpt>
<trkpt lat="42.5022770" lon="2.7292651"><ele></ele><time>2022-6-4T7:55:29Z</time></trkpt>
<trkpt lat="42.5024533" lon="2.7293833"><ele></ele><time>2022-6-4T7:55:32Z</time></trkpt>
<trkpt lat="42.5026237" lon="2.7295094"><ele></ele><time>2022-6-4T7:55:35Z</time></trkpt>
<trkpt lat="42.5028006" lon="2.7296016"><ele></ele><time>2022-6-4T7:55:38Z</time></trkpt>
<trkpt lat="42.5029729" lon="2.7296943"><ele></ele><time>2022-6-4T7:55:41Z</time></trkpt>
<trkpt lat="42.5031326" lon="2.7298440"><ele></ele><time>2022-6-4T7:55:44Z</time></trkpt>
<trkpt lat="42.5033111" lon="2.7298963"><ele></ele><time>2022-6-4T7:55:47Z</time></trkpt>
<trkpt lat="42.5034649" lon="2.7297455"><ele></ele><time>2022-6-4T7:55:50Z</time></trkpt>
<trkpt lat="42.5036148" lon="2.7295796"><ele></ele><time>2022-6-4T7:55:53Z</time></trkpt>
<trkpt lat="42.5037607" lon="2.7297227"><ele></ele><time>2022-6-4T7:55:56Z</time></trkpt>
<trkpt lat="42.5038041" lon="2.7294753"><ele></ele><time>2022-6-4T7:55:59Z</time></trkpt>
<trkpt lat="42.5038394" lon="2.7292128"><ele></ele><time>2022-6-4T7:56:2Z</time></trkpt>
<trkpt lat="42.5038902" lon="2.7289558"><ele></ele><time>2022-6-4T7:56:5Z</time></trkpt>
<trkpt lat="42.5039342" lon="2.7287026"><ele></ele><time>2022-6-4T7:56:8Z</time></trkpt>
<trkpt lat="42.5040972" lon="2.7285685"><ele></ele><time>2022-6-4T7:56:11Z</time></trkpt>
<trkpt lat="42.5042860" lon="2.7286464"><ele></ele><time>2022-6-4T7:56:14Z</time></trkpt>
<trkpt lat="42.5044758" lon="2.7287530"><ele></ele><time>2022-6-4T7:56:17Z</time></trkpt>
<trkpt lat="42.5046523" lon="2.7288109"><ele></ele><time>2022-6-4T7:56:20Z</time></trkpt>
<trkpt lat="42.5048425" lon="2.7288639"><ele></ele><time>2022-6-4T7:56:23Z</time></trkpt>
<trkpt lat="42.5050321" lon="2.7288929"><ele></ele><time>2022-6-4T7:56:26Z</time></trkpt>
<trkpt lat="42.5052345" lon="2.7289587"><ele></ele><time>2022-6-4T7:56:29Z</time></trkpt>
<trkpt lat="42.5054166" lon="2.7290737"><ele></ele><time>2022-6-4T7:56:32Z</time></trkpt>
<trkpt lat="42.5055853" lon="2.7289548"><ele></ele><time>2022-6-4T7:56:35Z</time></trkpt>
<trkpt lat="42.5056954" lon="2.7287272"><ele></ele><time>2022-6-4T7:56:38Z</time></trkpt>
<trkpt lat="42.5058089" lon="2.7285042"><ele></ele><time>2022-6-4T7:56:41Z</time></trkpt>
<trkpt lat="42.5059702" lon="2.7283768"><ele></ele><time>2022-6-4T7:56:44Z</time></trkpt>
<trkpt lat="42.5060312" lon="2.7281428"><ele></ele><time>2022-6-4T7:56:47Z</time></trkpt>
<trkpt lat="42.5059501" lon="2.7279022"><ele></ele><time>2022-6-4T7:56:50Z</time></trkpt>
<trkpt lat="42.5058922" lon="2.7276628"><ele></ele><time>2022-6-4T7:56:53Z</time></trkpt>
<trkpt lat="42.5058593" lon="2.7274192"><ele></ele><time>2022-6-4T7:56:56Z</time></trkpt>
<trkpt lat="42.5058279" lon="2.7271524"><ele></ele><time>2022-6-4T7:56:59Z</time></trkpt>
<trkpt lat="42.5058917" lon="2.7269070"><ele></ele><time>2022-6-4T7:57:2Z</time></trkpt>
<trkpt lat="42.5059689" lon="2.7266777"><ele></ele><time>2022-6-4T7:57:5Z</time></trkpt>
<trkpt lat="42.5060654" lon="2.7264678"><ele></ele><time>2022-6-4T7:57:8Z</time></trkpt>
<trkpt lat="42.5062073" lon="2.7263013"><ele></ele><time>2022-6-4T7:57:11Z</time></trkpt>
<trkpt lat="42.5063703" lon="2.7261278"><ele></ele><time>2022-6-4T7:57:14Z</time></trkpt>
<trkpt lat="42.5065333" lon="2.7260164"><ele></ele><time>2022-6-4T7:57:17Z</time></trkpt>
<trkpt lat="42.5067218" lon="2.7259347"><ele></ele><time>2022-6-4T7:57:20Z</time></trkpt>
<trkpt lat="42.5069058" lon="2.7259704"><ele></ele><time>2022-6-4T7:57:23Z</time></trkpt>
<trkpt lat="42.5070847" lon="2.7258752"><ele></ele><time>2022-6-4T7:57:26Z</time></trkpt>
<trkpt lat="42.5071710" lon="2.7256524"><ele></ele><time>2022-6-4T7:57:29Z</time></trkpt>
<trkpt lat="42.5072635" lon="2.7254366"><ele></ele><time>2022-6-4T7:57:32Z</time></trkpt>
<trkpt lat="42.5072958" lon="2.7251895"><ele></ele><time>2022-6-4T7:57:35Z</time></trkpt>
<trkpt lat="42.5073279" lon="2.7249435"><ele></ele><time>2022-6-4T7:57:38Z</time></trkpt>
<trkpt lat="42.5073774" lon="2.7246827"><ele></ele><time>2022-6-4T7:57:41Z</time></trkpt>
<trkpt lat="42.5074642" lon="2.7244508"><ele></ele><time>2022-6-4T7:57:44Z</time></trkpt>
<trkpt lat="42.5076132" lon="2.7242982"><ele></ele><time>2022-6-4T7:57:47Z</time></trkpt>
<trkpt lat="42.5077964" lon="2.7241793"><ele></ele><time>2022-6-4T7:57:50Z</time></trkpt>
<trkpt lat="42.5079588" lon="2.7240296"><ele></ele><time>2022-6-4T7:57:53Z</time></trkpt>
<trkpt lat="42.5081106" lon="2.7238781"><ele></ele><time>2022-6-4T7:57:56Z</time></trkpt>
<trkpt lat="42.5082834" lon="2.7237933"><ele></ele><time>2022-6-4T7:57:59Z</time></trkpt>
<trkpt lat="42.5082295" lon="2.7235500"><ele></ele><time>2022-6-4T7:58:2Z</time></trkpt>
<trkpt lat="42.5080387" lon="2.7235056"><ele></ele><time>2022-6-4T7:58:5Z</time></trkpt>
<trkpt lat="42.5078457" lon="2.7234464"><ele></ele><time>2022-6-4T7:58:8Z</time></trkpt>
<trkpt lat="42.5076663" lon="2.7233744"><ele></ele><time>2022-6-4T7:58:11Z</time></trkpt>
<trkpt lat="42.5076212" lon="2.7231266"><ele></ele><time>2022-6-4T7:58:14Z</time></trkpt>
<trkpt lat="42.5076458" lon="2.7228637"><ele></ele><time>2022-6-4T7:58:17Z</time></trkpt>
<trkpt lat="42.5077194" lon="2.7226372"><ele></ele><time>2022-6-4T7:58:20Z</time></trkpt>
<trkpt lat="42.5078442" lon="2.7224321"><ele></ele><time>2022-6-4T7:58:23Z</time></trkpt>
<trkpt lat="42.5079393" lon="2.7222249"><ele></ele><time>2022-6-4T7:58:26Z</time></trkpt>
<trkpt lat="42.5080495" lon="2.7220159"><ele></ele><time>2022-6-4T7:58:29Z</time></trkpt>
<trkpt lat="42.5081587" lon="2.7218136"><ele></ele><time>2022-6-4T7:58:32Z</time></trkpt>
<trkpt lat="42.5082668" lon="2.7216045"><ele></ele><time>2022-6-4T7:58:35Z</time></trkpt>
<trkpt lat="42.5083589" lon="2.7213879"><ele></ele><time>2022-6-4T7:58:38Z</time></trkpt>
<trkpt lat="42.5084510" lon="2.7211447"><ele></ele><time>2022-6-4T7:58:41Z</time></trkpt>
<trkpt lat="42.5085653" lon="2.7209290"><ele></ele><time>2022-6-4T7:58:44Z</time></trkpt>
<trkpt lat="42.5087249" lon="2.7207704"><ele></ele><time>2022-6-4T7:58:47Z</time></trkpt>
<trkpt lat="42.5088744" lon="2.7206094"><ele></ele><time>2022-6-4T7:58:50Z</time></trkpt>
<trkpt lat="42.5090327" lon="2.7204467"><ele></ele><time>2022-6-4T7:58:53Z</time></trkpt>
<trkpt lat="42.5091346" lon="2.7202332"><ele></ele><time>2022-6-4T7:58:56Z</time></trkpt>
<trkpt lat="42.5092616" lon="2.7200217"><ele></ele><time>2022-6-4T7:58:59Z</time></trkpt>
<trkpt lat="42.5092974" lon="2.7197757"><ele></ele><time>2022-6-4T7:59:2Z</time></trkpt>
<trkpt lat="42.5092548" lon="2.7195334"><ele></ele><time>2022-6-4T7:59:5Z</time></trkpt>
<trkpt lat="42.5093652" lon="2.7193318"><ele></ele><time>2022-6-4T7:59:8Z</time></trkpt>
<trkpt lat="42.5095001" lon="2.7191512"><ele></ele><time>2022-6-4T7:59:11Z</time></trkpt>
<trkpt lat="42.5096748" lon="2.7190468"><ele></ele><time>2022-6-4T7:59:14Z</time></trkpt>
<trkpt lat="42.5098543" lon="2.7190026"><ele></ele><time>2022-6-4T7:59:17Z</time></trkpt>
<trkpt lat="42.5100239" lon="2.7189166"><ele></ele><time>2022-6-4T7:59:20Z</time></trkpt>
<trkpt lat="42.5100386" lon="2.7186676"><ele></ele><time>2022-6-4T7:59:23Z</time></trkpt>
<trkpt lat="42.5100909" lon="2.7184315"><ele></ele><time>2022-6-4T7:59:26Z</time></trkpt>
<trkpt lat="42.5102205" lon="2.7182596"><ele></ele><time>2022-6-4T7:59:29Z</time></trkpt>
<trkpt lat="42.5103818" lon="2.7181020"><ele></ele><time>2022-6-4T7:59:32Z</time></trkpt>
<trkpt lat="42.5105559" lon="2.7180379"><ele></ele><time>2022-6-4T7:59:35Z</time></trkpt>
<trkpt lat="42.5107559" lon="2.7179857"><ele></ele><time>2022-6-4T7:59:38Z</time></trkpt>
<trkpt lat="42.5109387" lon="2.7179996"><ele></ele><time>2022-6-4T7:59:41Z</time></trkpt>
<trkpt lat="42.5111193" lon="2.7179086"><ele></ele><time>2022-6-4T7:59:44Z</time></trkpt>
<trkpt lat="42.5112757" lon="2.7177522"><ele></ele><time>2022-6-4T7:59:47Z</time></trkpt>
<trkpt lat="42.5114149" lon="2.7175949"><ele></ele><time>2022-6-4T7:59:50Z</time></trkpt>
<trkpt lat="42.5115668" lon="2.7174355"><ele></ele><time>2022-6-4T7:59:53Z</time></trkpt>
<trkpt lat="42.5117225" lon="2.7172950"><ele></ele><time>2022-6-4T7:59:56Z</time></trkpt>
<trkpt lat="42.5118808" lon="2.7171361"><ele></ele><time>2022-6-4T7:59:59Z</time></trkpt>
<trkpt lat="42.5119136" lon="2.7168817"><ele></ele><time>2022-6-4T8:0:2Z</time></trkpt>
<trkpt lat="42.5118323" lon="2.7166252"><ele></ele><time>2022-6-4T8:0:5Z</time></trkpt>
<trkpt lat="42.5117710" lon="2.7163899"><ele></ele><time>2022-6-4T8:0:8Z</time></trkpt>
<trkpt lat="42.5117375" lon="2.7161177"><ele></ele><time>2022-6-4T8:0:11Z</time></trkpt>
<trkpt lat="42.5117966" lon="2.7158786"><ele></ele><time>2022-6-4T8:0:14Z</time></trkpt>
<trkpt lat="42.5119586" lon="2.7157503"><ele></ele><time>2022-6-4T8:0:17Z</time></trkpt>
<trkpt lat="42.5121398" lon="2.7158643"><ele></ele><time>2022-6-4T8:0:20Z</time></trkpt>
<trkpt lat="42.5123298" lon="2.7158260"><ele></ele><time>2022-6-4T8:0:23Z</time></trkpt>
<trkpt lat="42.5125117" lon="2.7158997"><ele></ele><time>2022-6-4T8:0:26Z</time></trkpt>
<trkpt lat="42.5123338" lon="2.7159788"><ele></ele><time>2022-6-4T8:0:29Z</time></trkpt>
<trkpt lat="42.5122482" lon="2.7162153"><ele></ele><time>2022-6-4T8:0:32Z</time></trkpt>
<trkpt lat="42.5122749" lon="2.7164567"><ele></ele><time>2022-6-4T8:0:35Z</time></trkpt>
<trkpt lat="42.5123439" lon="2.7167069"><ele></ele><time>2022-6-4T8:0:38Z</time></trkpt>
<trkpt lat="42.5124607" lon="2.7169169"><ele></ele><time>2022-6-4T8:0:41Z</time></trkpt>
<trkpt lat="42.5125292" lon="2.7171434"><ele></ele><time>2022-6-4T8:0:44Z</time></trkpt>
<trkpt lat="42.5124446" lon="2.7173656"><ele></ele><time>2022-6-4T8:0:47Z</time></trkpt>
<trkpt lat="42.5123360" lon="2.7175969"><ele></ele><time>2022-6-4T8:0:50Z</time></trkpt>
<trkpt lat="42.5122576" lon="2.7178202"><ele></ele><time>2022-6-4T8:0:53Z</time></trkpt>
<trkpt lat="42.5121868" lon="2.7180742"><ele></ele><time>2022-6-4T8:0:56Z</time></trkpt>
<trkpt lat="42.5121212" lon="2.7183193"><ele></ele><time>2022-6-4T8:0:59Z</time></trkpt>
<trkpt lat="42.5121132" lon="2.7185803"><ele></ele><time>2022-6-4T8:1:2Z</time></trkpt>
<trkpt lat="42.5122550" lon="2.7187313"><ele></ele><time>2022-6-4T8:1:5Z</time></trkpt>
<trkpt lat="42.5124474" lon="2.7187328"><ele></ele><time>2022-6-4T8:1:8Z</time></trkpt>
<trkpt lat="42.5126300" lon="2.7187247"><ele></ele><time>2022-6-4T8:1:11Z</time></trkpt>
<trkpt lat="42.5128098" lon="2.7187048"><ele></ele><time>2022-6-4T8:1:14Z</time></trkpt>
<trkpt lat="42.5129988" lon="2.7187317"><ele></ele><time>2022-6-4T8:1:17Z</time></trkpt>
<trkpt lat="42.5130898" lon="2.7189758"><ele></ele><time>2022-6-4T8:1:20Z</time></trkpt>
<trkpt lat="42.5131152" lon="2.7192477"><ele></ele><time>2022-6-4T8:1:23Z</time></trkpt>
<trkpt lat="42.5131528" lon="2.7195157"><ele></ele><time>2022-6-4T8:1:26Z</time></trkpt>
<trkpt lat="42.5131889" lon="2.7197817"><ele></ele><time>2022-6-4T8:1:29Z</time></trkpt>
<trkpt lat="42.5132847" lon="2.7200048"><ele></ele><time>2022-6-4T8:1:32Z</time></trkpt>
<trkpt lat="42.5134754" lon="2.7200921"><ele></ele><time>2022-6-4T8:1:35Z</time></trkpt>
<trkpt lat="42.5136821" lon="2.7201000"><ele></ele><time>2022-6-4T8:1:38Z</time></trkpt>
<trkpt lat="42.5138600" lon="2.7200239"><ele></ele><time>2022-6-4T8:1:41Z</time></trkpt>
<trkpt lat="42.5140498" lon="2.7199228"><ele></ele><time>2022-6-4T8:1:44Z</time></trkpt>
<trkpt lat="42.5142283" lon="2.7198136"><ele></ele><time>2022-6-4T8:1:47Z</time></trkpt>
<trkpt lat="42.5144024" lon="2.7196994"><ele></ele><time>2022-6-4T8:1:50Z</time></trkpt>
<trkpt lat="42.5145634" lon="2.7195440"><ele></ele><time>2022-6-4T8:1:53Z</time></trkpt>
<trkpt lat="42.5147278" lon="2.7193898"><ele></ele><time>2022-6-4T8:1:56Z</time></trkpt>
<trkpt lat="42.5148962" lon="2.7192309"><ele></ele><time>2022-6-4T8:1:59Z</time></trkpt>
<trkpt lat="42.5150718" lon="2.7191184"><ele></ele><time>2022-6-4T8:2:2Z</time></trkpt>
<trkpt lat="42.5152682" lon="2.7190701"><ele></ele><time>2022-6-4T8:2:5Z</time></trkpt>
<trkpt lat="42.5154394" lon="2.7189883"><ele></ele><time>2022-6-4T8:2:8Z</time></trkpt>
<trkpt lat="42.5156057" lon="2.7188265"><ele></ele><time>2022-6-4T8:2:11Z</time></trkpt>
<trkpt lat="42.5157341" lon="2.7186400"><ele></ele><time>2022-6-4T8:2:14Z</time></trkpt>
<trkpt lat="42.5158546" lon="2.7184465"><ele></ele><time>2022-6-4T8:2:17Z</time></trkpt>
<trkpt lat="42.5159730" lon="2.7182536"><ele></ele><time>2022-6-4T8:2:20Z</time></trkpt>
<trkpt lat="42.5161180" lon="2.7180715"><ele></ele><time>2022-6-4T8:2:23Z</time></trkpt>
<trkpt lat="42.5162546" lon="2.7178796"><ele></ele><time>2022-6-4T8:2:26Z</time></trkpt>
<trkpt lat="42.5163654" lon="2.7176854"><ele></ele><time>2022-6-4T8:2:29Z</time></trkpt>
<trkpt lat="42.5164894" lon="2.7174590"><ele></ele><time>2022-6-4T8:2:32Z</time></trkpt>
<trkpt lat="42.5165852" lon="2.7172153"><ele></ele><time>2022-6-4T8:2:35Z</time></trkpt>
<trkpt lat="42.5166653" lon="2.7169612"><ele></ele><time>2022-6-4T8:2:38Z</time></trkpt>
<trkpt lat="42.5167285" lon="2.7166971"><ele></ele><time>2022-6-4T8:2:41Z</time></trkpt>
<trkpt lat="42.5167357" lon="2.7164528"><ele></ele><time>2022-6-4T8:2:44Z</time></trkpt>
<trkpt lat="42.5167223" lon="2.7161840"><ele></ele><time>2022-6-4T8:2:47Z</time></trkpt>
<trkpt lat="42.5167279" lon="2.7159057"><ele></ele><time>2022-6-4T8:2:50Z</time></trkpt>
<trkpt lat="42.5167064" lon="2.7156345"><ele></ele><time>2022-6-4T8:2:53Z</time></trkpt>
<trkpt lat="42.5166808" lon="2.7153889"><ele></ele><time>2022-6-4T8:2:56Z</time></trkpt>
<trkpt lat="42.5167287" lon="2.7151288"><ele></ele><time>2022-6-4T8:2:59Z</time></trkpt>
<trkpt lat="42.5169230" lon="2.7150370"><ele></ele><time>2022-6-4T8:3:2Z</time></trkpt>
<trkpt lat="42.5171088" lon="2.7149959"><ele></ele><time>2022-6-4T8:3:5Z</time></trkpt>
<trkpt lat="42.5172975" lon="2.7149547"><ele></ele><time>2022-6-4T8:3:8Z</time></trkpt>
<trkpt lat="42.5174889" lon="2.7148771"><ele></ele><time>2022-6-4T8:3:11Z</time></trkpt>
<trkpt lat="42.5176441" lon="2.7147355"><ele></ele><time>2022-6-4T8:3:14Z</time></trkpt>
<trkpt lat="42.5177771" lon="2.7145325"><ele></ele><time>2022-6-4T8:3:17Z</time></trkpt>
<trkpt lat="42.5179192" lon="2.7143616"><ele></ele><time>2022-6-4T8:3:20Z</time></trkpt>
<trkpt lat="42.5180972" lon="2.7142322"><ele></ele><time>2022-6-4T8:3:23Z</time></trkpt>
<trkpt lat="42.5182677" lon="2.7140947"><ele></ele><time>2022-6-4T8:3:26Z</time></trkpt>
<trkpt lat="42.5184366" lon="2.7139188"><ele></ele><time>2022-6-4T8:3:29Z</time></trkpt>
<trkpt lat="42.5185825" lon="2.7137694"><ele></ele><time>2022-6-4T8:3:32Z</time></trkpt>
<trkpt lat="42.5187624" lon="2.7136098"><ele></ele><time>2022-6-4T8:3:35Z</time></trkpt>
<trkpt lat="42.5189245" lon="2.7134287"><ele></ele><time>2022-6-4T8:3:38Z</time></trkpt>
<trkpt lat="42.5190845" lon="2.7132573"><ele></ele><time>2022-6-4T8:3:41Z</time></trkpt>
<trkpt lat="42.5192366" lon="2.7130866"><ele></ele><time>2022-6-4T8:3:44Z</time></trkpt>
<trkpt lat="42.5194162" lon="2.7130083"><ele></ele><time>2022-6-4T8:3:47Z</time></trkpt>
<trkpt lat="42.5195985" lon="2.7130857"><ele></ele><time>2022-6-4T8:3:50Z</time></trkpt>
<trkpt lat="42.5197657" lon="2.7132032"><ele></ele><time>2022-6-4T8:3:53Z</time></trkpt>
<trkpt lat="42.5199465" lon="2.7132965"><ele></ele><time>2022-6-4T8:3:56Z</time></trkpt>
<trkpt lat="42.5201136" lon="2.7131931"><ele></ele><time>2022-6-4T8:3:59Z</time></trkpt>
<trkpt lat="42.5202379" lon="2.7129875"><ele></ele><time>2022-6-4T8:4:2Z</time></trkpt>
<trkpt lat="42.5203524" lon="2.7127637"><ele></ele><time>2022-6-4T8:4:5Z</time></trkpt>
<trkpt lat="42.5204374" lon="2.7125101"><ele></ele><time>2022-6-4T8:4:8Z</time></trkpt>
<trkpt lat="42.5205234" lon="2.7122288"><ele></ele><time>2022-6-4T8:4:11Z</time></trkpt>
<trkpt lat="42.5206049" lon="2.7119983"><ele></ele><time>2022-6-4T8:4:14Z</time></trkpt>
<trkpt lat="42.5207352" lon="2.7118064"><ele></ele><time>2022-6-4T8:4:17Z</time></trkpt>
<trkpt lat="42.5209109" lon="2.7116271"><ele></ele><time>2022-6-4T8:4:20Z</time></trkpt>
<trkpt lat="42.5211217" lon="2.7115586"><ele></ele><time>2022-6-4T8:4:23Z</time></trkpt>
<trkpt lat="42.5212992" lon="2.7114421"><ele></ele><time>2022-6-4T8:4:26Z</time></trkpt>
<trkpt lat="42.5214380" lon="2.7112166"><ele></ele><time>2022-6-4T8:4:29Z</time></trkpt>
<trkpt lat="42.5216189" lon="2.7110590"><ele></ele><time>2022-6-4T8:4:32Z</time></trkpt>
<trkpt lat="42.5218250" lon="2.7110404"><ele></ele><time>2022-6-4T8:4:35Z</time></trkpt>
<trkpt lat="42.5220101" lon="2.7111488"><ele></ele><time>2022-6-4T8:4:38Z</time></trkpt>
<trkpt lat="42.5221475" lon="2.7113071"><ele></ele><time>2022-6-4T8:4:41Z</time></trkpt>
<trkpt lat="42.5222835" lon="2.7114892"><ele></ele><time>2022-6-4T8:4:44Z</time></trkpt>
<trkpt lat="42.5223928" lon="2.7116921"><ele></ele><time>2022-6-4T8:4:47Z</time></trkpt>
<trkpt lat="42.5225389" lon="2.7118586"><ele></ele><time>2022-6-4T8:4:50Z</time></trkpt>
<trkpt lat="42.5227182" lon="2.7118316"><ele></ele><time>2022-6-4T8:4:53Z</time></trkpt>
<trkpt lat="42.5227820" lon="2.7115963"><ele></ele><time>2022-6-4T8:4:56Z</time></trkpt>
<trkpt lat="42.5226325" lon="2.7114478"><ele></ele><time>2022-6-4T8:4:59Z</time></trkpt>
<trkpt lat="42.5224485" lon="2.7113233"><ele></ele><time>2022-6-4T8:5:2Z</time></trkpt>
<trkpt lat="42.5223131" lon="2.7111354"><ele></ele><time>2022-6-4T8:5:5Z</time></trkpt>
<trkpt lat="42.5222233" lon="2.7109075"><ele></ele><time>2022-6-4T8:5:8Z</time></trkpt>
<trkpt lat="42.5220850" lon="2.7107013"><ele></ele><time>2022-6-4T8:5:11Z</time></trkpt>
<trkpt lat="42.5219747" lon="2.7104992"><ele></ele><time>2022-6-4T8:5:14Z</time></trkpt>
<trkpt lat="42.5221448" lon="2.7105942"><ele></ele><time>2022-6-4T8:5:17Z</time></trkpt>
<trkpt lat="42.5222641" lon="2.7104041"><ele></ele><time>2022-6-4T8:5:20Z</time></trkpt>
<trkpt lat="42.5223079" lon="2.7101376"><ele></ele><time>2022-6-4T8:5:23Z</time></trkpt>
<trkpt lat="42.5224611" lon="2.7100095"><ele></ele><time>2022-6-4T8:5:26Z</time></trkpt>
<trkpt lat="42.5226038" lon="2.7098353"><ele></ele><time>2022-6-4T8:5:29Z</time></trkpt>
<trkpt lat="42.5225534" lon="2.7095928"><ele></ele><time>2022-6-4T8:5:32Z</time></trkpt>
<trkpt lat="42.5226310" lon="2.7093680"><ele></ele><time>2022-6-4T8:5:35Z</time></trkpt>
<trkpt lat="42.5224897" lon="2.7095398"><ele></ele><time>2022-6-4T8:5:38Z</time></trkpt>
<trkpt lat="42.5222997" lon="2.7095730"><ele></ele><time>2022-6-4T8:5:41Z</time></trkpt>
<trkpt lat="42.5221372" lon="2.7097025"><ele></ele><time>2022-6-4T8:5:44Z</time></trkpt>
<trkpt lat="42.5219426" lon="2.7098125"><ele></ele><time>2022-6-4T8:5:47Z</time></trkpt>
<trkpt lat="42.5217572" lon="2.7098411"><ele></ele><time>2022-6-4T8:5:50Z</time></trkpt>
<trkpt lat="42.5215548" lon="2.7098331"><ele></ele><time>2022-6-4T8:5:53Z</time></trkpt>
<trkpt lat="42.5213506" lon="2.7098128"><ele></ele><time>2022-6-4T8:5:56Z</time></trkpt>
<trkpt lat="42.5211508" lon="2.7098149"><ele></ele><time>2022-6-4T8:5:59Z</time></trkpt>
<trkpt lat="42.5209832" lon="2.7099303"><ele></ele><time>2022-6-4T8:6:2Z</time></trkpt>
<trkpt lat="42.5208201" lon="2.7100392"><ele></ele><time>2022-6-4T8:6:5Z</time></trkpt>
<trkpt lat="42.5206325" lon="2.7100780"><ele></ele><time>2022-6-4T8:6:8Z</time></trkpt>
<trkpt lat="42.5204686" lon="2.7102058"><ele></ele><time>2022-6-4T8:6:11Z</time></trkpt>
<trkpt lat="42.5203308" lon="2.7103992"><ele></ele><time>2022-6-4T8:6:14Z</time></trkpt>
<trkpt lat="42.5201743" lon="2.7105437"><ele></ele><time>2022-6-4T8:6:17Z</time></trkpt>
<trkpt lat="42.5199769" lon="2.7106341"><ele></ele><time>2022-6-4T8:6:20Z</time></trkpt>
<trkpt lat="42.5197722" lon="2.7106060"><ele></ele><time>2022-6-4T8:6:23Z</time></trkpt>
<trkpt lat="42.5195570" lon="2.7106735"><ele></ele><time>2022-6-4T8:6:26Z</time></trkpt>
<trkpt lat="42.5193580" lon="2.7106846"><ele></ele><time>2022-6-4T8:6:29Z</time></trkpt>
<trkpt lat="42.5191965" lon="2.7105362"><ele></ele><time>2022-6-4T8:6:32Z</time></trkpt>
<trkpt lat="42.5190307" lon="2.7104256"><ele></ele><time>2022-6-4T8:6:35Z</time></trkpt>
<trkpt lat="42.5188690" lon="2.7102543"><ele></ele><time>2022-6-4T8:6:38Z</time></trkpt>
<trkpt lat="42.5187081" lon="2.7101265"><ele></ele><time>2022-6-4T8:6:41Z</time></trkpt>
<trkpt lat="42.5185313" lon="2.7099852"><ele></ele><time>2022-6-4T8:6:44Z</time></trkpt>
<trkpt lat="42.5183292" lon="2.7098859"><ele></ele><time>2022-6-4T8:6:47Z</time></trkpt>
<trkpt lat="42.5180894" lon="2.7096962"><ele></ele><time>2022-6-4T8:6:50Z</time></trkpt>
<trkpt lat="42.5179296" lon="2.7095513"><ele></ele><time>2022-6-4T8:6:53Z</time></trkpt>
<trkpt lat="42.5177523" lon="2.7094982"><ele></ele><time>2022-6-4T8:6:56Z</time></trkpt>
<trkpt lat="42.5175630" lon="2.7093809"><ele></ele><time>2022-6-4T8:6:59Z</time></trkpt>
<trkpt lat="42.5173799" lon="2.7092992"><ele></ele><time>2022-6-4T8:7:2Z</time></trkpt>
<trkpt lat="42.5171652" lon="2.7092963"><ele></ele><time>2022-6-4T8:7:5Z</time></trkpt>
<trkpt lat="42.5169112" lon="2.7092392"><ele></ele><time>2022-6-4T8:7:8Z</time></trkpt>
<trkpt lat="42.5167009" lon="2.7092086"><ele></ele><time>2022-6-4T8:7:11Z</time></trkpt>
<trkpt lat="42.5165304" lon="2.7091257"><ele></ele><time>2022-6-4T8:7:14Z</time></trkpt>
<trkpt lat="42.5162923" lon="2.7090174"><ele></ele><time>2022-6-4T8:7:17Z</time></trkpt>
<trkpt lat="42.5161182" lon="2.7089356"><ele></ele><time>2022-6-4T8:7:20Z</time></trkpt>
<trkpt lat="42.5159160" lon="2.7089014"><ele></ele><time>2022-6-4T8:7:23Z</time></trkpt>
<trkpt lat="42.5157227" lon="2.7089096"><ele></ele><time>2022-6-4T8:7:26Z</time></trkpt>
<trkpt lat="42.5155515" lon="2.7088098"><ele></ele><time>2022-6-4T8:7:29Z</time></trkpt>
<trkpt lat="42.5153540" lon="2.7086978"><ele></ele><time>2022-6-4T8:7:32Z</time></trkpt>
<trkpt lat="42.5151644" lon="2.7086783"><ele></ele><time>2022-6-4T8:7:35Z</time></trkpt>
<trkpt lat="42.5149927" lon="2.7085699"><ele></ele><time>2022-6-4T8:7:38Z</time></trkpt>
<trkpt lat="42.5148252" lon="2.7084358"><ele></ele><time>2022-6-4T8:7:41Z</time></trkpt>
<trkpt lat="42.5146367" lon="2.7083288"><ele></ele><time>2022-6-4T8:7:44Z</time></trkpt>
<trkpt lat="42.5144736" lon="2.7082233"><ele></ele><time>2022-6-4T8:7:47Z</time></trkpt>
<trkpt lat="42.5142544" lon="2.7082483"><ele></ele><time>2022-6-4T8:7:50Z</time></trkpt>
<trkpt lat="42.5140645" lon="2.7082589"><ele></ele><time>2022-6-4T8:7:53Z</time></trkpt>
<trkpt lat="42.5138840" lon="2.7082389"><ele></ele><time>2022-6-4T8:7:56Z</time></trkpt>
<trkpt lat="42.5136986" lon="2.7082082"><ele></ele><time>2022-6-4T8:7:59Z</time></trkpt>
<trkpt lat="42.5134994" lon="2.7082045"><ele></ele><time>2022-6-4T8:8:2Z</time></trkpt>
<trkpt lat="42.5133181" lon="2.7082119"><ele></ele><time>2022-6-4T8:8:5Z</time></trkpt>
<trkpt lat="42.5131371" lon="2.7081564"><ele></ele><time>2022-6-4T8:8:8Z</time></trkpt>
<trkpt lat="42.5129417" lon="2.7081385"><ele></ele><time>2022-6-4T8:8:11Z</time></trkpt>
<trkpt lat="42.5127564" lon="2.7082080"><ele></ele><time>2022-6-4T8:8:14Z</time></trkpt>
<trkpt lat="42.5125756" lon="2.7083520"><ele></ele><time>2022-6-4T8:8:17Z</time></trkpt>
<trkpt lat="42.5124047" lon="2.7085150"><ele></ele><time>2022-6-4T8:8:20Z</time></trkpt>
<trkpt lat="42.5122431" lon="2.7086900"><ele></ele><time>2022-6-4T8:8:23Z</time></trkpt>
<trkpt lat="42.5120636" lon="2.7087357"><ele></ele><time>2022-6-4T8:8:26Z</time></trkpt>
<trkpt lat="42.5118871" lon="2.7088026"><ele></ele><time>2022-6-4T8:8:29Z</time></trkpt>
<trkpt lat="42.5118188" lon="2.7090287"><ele></ele><time>2022-6-4T8:8:32Z</time></trkpt>
<trkpt lat="42.5117748" lon="2.7093190"><ele></ele><time>2022-6-4T8:8:35Z</time></trkpt>
<trkpt lat="42.5116784" lon="2.7095387"><ele></ele><time>2022-6-4T8:8:38Z</time></trkpt>
<trkpt lat="42.5115965" lon="2.7097885"><ele></ele><time>2022-6-4T8:8:41Z</time></trkpt>
<trkpt lat="42.5115187" lon="2.7100603"><ele></ele><time>2022-6-4T8:8:44Z</time></trkpt>
<trkpt lat="42.5114624" lon="2.7103349"><ele></ele><time>2022-6-4T8:8:47Z</time></trkpt>
<trkpt lat="42.5113654" lon="2.7105866"><ele></ele><time>2022-6-4T8:8:50Z</time></trkpt>
<trkpt lat="42.5112017" lon="2.7107708"><ele></ele><time>2022-6-4T8:8:53Z</time></trkpt>
<trkpt lat="42.5110434" lon="2.7109158"><ele></ele><time>2022-6-4T8:8:56Z</time></trkpt>
<trkpt lat="42.5108926" lon="2.7110585"><ele></ele><time>2022-6-4T8:8:59Z</time></trkpt>
<trkpt lat="42.5106980" lon="2.7110611"><ele></ele><time>2022-6-4T8:9:2Z</time></trkpt>
<trkpt lat="42.5104952" lon="2.7109485"><ele></ele><time>2022-6-4T8:9:5Z</time></trkpt>
<trkpt lat="42.5102848" lon="2.7108700"><ele></ele><time>2022-6-4T8:9:8Z</time></trkpt>
<trkpt lat="42.5100774" lon="2.7108066"><ele></ele><time>2022-6-4T8:9:11Z</time></trkpt>
<trkpt lat="42.5098746" lon="2.7107113"><ele></ele><time>2022-6-4T8:9:14Z</time></trkpt>
<trkpt lat="42.5096684" lon="2.7106401"><ele></ele><time>2022-6-4T8:9:17Z</time></trkpt>
<trkpt lat="42.5094601" lon="2.7106149"><ele></ele><time>2022-6-4T8:9:20Z</time></trkpt>
<trkpt lat="42.5092434" lon="2.7106501"><ele></ele><time>2022-6-4T8:9:23Z</time></trkpt>
<trkpt lat="42.5090159" lon="2.7106252"><ele></ele><time>2022-6-4T8:9:26Z</time></trkpt>
<trkpt lat="42.5088028" lon="2.7104858"><ele></ele><time>2022-6-4T8:9:29Z</time></trkpt>
<trkpt lat="42.5086230" lon="2.7105375"><ele></ele><time>2022-6-4T8:9:32Z</time></trkpt>
<trkpt lat="42.5085175" lon="2.7108204"><ele></ele><time>2022-6-4T8:9:35Z</time></trkpt>
<trkpt lat="42.5084210" lon="2.7110392"><ele></ele><time>2022-6-4T8:9:38Z</time></trkpt>
<trkpt lat="42.5082925" lon="2.7112341"><ele></ele><time>2022-6-4T8:9:41Z</time></trkpt>
<trkpt lat="42.5081365" lon="2.7114099"><ele></ele><time>2022-6-4T8:9:44Z</time></trkpt>
<trkpt lat="42.5079817" lon="2.7115599"><ele></ele><time>2022-6-4T8:9:47Z</time></trkpt>
<trkpt lat="42.5078703" lon="2.7117520"><ele></ele><time>2022-6-4T8:9:50Z</time></trkpt>
<trkpt lat="42.5077726" lon="2.7119923"><ele></ele><time>2022-6-4T8:9:53Z</time></trkpt>
<trkpt lat="42.5076625" lon="2.7121877"><ele></ele><time>2022-6-4T8:9:56Z</time></trkpt>
<trkpt lat="42.5075499" lon="2.7123894"><ele></ele><time>2022-6-4T8:9:59Z</time></trkpt>
<trkpt lat="42.5074310" lon="2.7125855"><ele></ele><time>2022-6-4T8:10:2Z</time></trkpt>
<trkpt lat="42.5073057" lon="2.7127878"><ele></ele><time>2022-6-4T8:10:5Z</time></trkpt>
<trkpt lat="42.5072012" lon="2.7129963"><ele></ele><time>2022-6-4T8:10:8Z</time></trkpt>
<trkpt lat="42.5071207" lon="2.7132163"><ele></ele><time>2022-6-4T8:10:11Z</time></trkpt>
<trkpt lat="42.5070163" lon="2.7134589"><ele></ele><time>2022-6-4T8:10:14Z</time></trkpt>
<trkpt lat="42.5069401" lon="2.7136869"><ele></ele><time>2022-6-4T8:10:17Z</time></trkpt>
<trkpt lat="42.5068497" lon="2.7139310"><ele></ele><time>2022-6-4T8:10:20Z</time></trkpt>
<trkpt lat="42.5067474" lon="2.7141495"><ele></ele><time>2022-6-4T8:10:23Z</time></trkpt>
<trkpt lat="42.5066167" lon="2.7143709"><ele></ele><time>2022-6-4T8:10:26Z</time></trkpt>
<trkpt lat="42.5065900" lon="2.7146338"><ele></ele><time>2022-6-4T8:10:29Z</time></trkpt>
<trkpt lat="42.5066109" lon="2.7148892"><ele></ele><time>2022-6-4T8:10:32Z</time></trkpt>
<trkpt lat="42.5066327" lon="2.7151387"><ele></ele><time>2022-6-4T8:10:35Z</time></trkpt>
<trkpt lat="42.5066605" lon="2.7154145"><ele></ele><time>2022-6-4T8:10:38Z</time></trkpt>
<trkpt lat="42.5066660" lon="2.7156842"><ele></ele><time>2022-6-4T8:10:41Z</time></trkpt>
<trkpt lat="42.5066473" lon="2.7159731"><ele></ele><time>2022-6-4T8:10:44Z</time></trkpt>
<trkpt lat="42.5065875" lon="2.7162039"><ele></ele><time>2022-6-4T8:10:47Z</time></trkpt>
<trkpt lat="42.5065033" lon="2.7164236"><ele></ele><time>2022-6-4T8:10:50Z</time></trkpt>
<trkpt lat="42.5065083" lon="2.7166920"><ele></ele><time>2022-6-4T8:10:53Z</time></trkpt>
<trkpt lat="42.5064962" lon="2.7169452"><ele></ele><time>2022-6-4T8:10:56Z</time></trkpt>
<trkpt lat="42.5063986" lon="2.7171972"><ele></ele><time>2022-6-4T8:10:59Z</time></trkpt>
<trkpt lat="42.5062898" lon="2.7174070"><ele></ele><time>2022-6-4T8:11:2Z</time></trkpt>
<trkpt lat="42.5061674" lon="2.7176530"><ele></ele><time>2022-6-4T8:11:5Z</time></trkpt>
<trkpt lat="42.5060645" lon="2.7178649"><ele></ele><time>2022-6-4T8:11:8Z</time></trkpt>
<trkpt lat="42.5059437" lon="2.7181517"><ele></ele><time>2022-6-4T8:11:11Z</time></trkpt>
<trkpt lat="42.5058921" lon="2.7184384"><ele></ele><time>2022-6-4T8:11:14Z</time></trkpt>
<trkpt lat="42.5058421" lon="2.7187578"><ele></ele><time>2022-6-4T8:11:17Z</time></trkpt>
<trkpt lat="42.5057973" lon="2.7190978"><ele></ele><time>2022-6-4T8:11:20Z</time></trkpt>
<trkpt lat="42.5057741" lon="2.7193971"><ele></ele><time>2022-6-4T8:11:23Z</time></trkpt>
<trkpt lat="42.5057412" lon="2.7196555"><ele></ele><time>2022-6-4T8:11:26Z</time></trkpt>
<trkpt lat="42.5056570" lon="2.7198952"><ele></ele><time>2022-6-4T8:11:29Z</time></trkpt>
<trkpt lat="42.5054987" lon="2.7200116"><ele></ele><time>2022-6-4T8:11:32Z</time></trkpt>
<trkpt lat="42.5053191" lon="2.7201558"><ele></ele><time>2022-6-4T8:11:35Z</time></trkpt>
<trkpt lat="42.5051503" lon="2.7202490"><ele></ele><time>2022-6-4T8:11:38Z</time></trkpt>
<trkpt lat="42.5049793" lon="2.7203884"><ele></ele><time>2022-6-4T8:11:41Z</time></trkpt>
<trkpt lat="42.5048161" lon="2.7205281"><ele></ele><time>2022-6-4T8:11:44Z</time></trkpt>
<trkpt lat="42.5046360" lon="2.7206389"><ele></ele><time>2022-6-4T8:11:47Z</time></trkpt>
<trkpt lat="42.5044630" lon="2.7207739"><ele></ele><time>2022-6-4T8:11:50Z</time></trkpt>
<trkpt lat="42.5042806" lon="2.7208850"><ele></ele><time>2022-6-4T8:11:53Z</time></trkpt>
<trkpt lat="42.5041076" lon="2.7210207"><ele></ele><time>2022-6-4T8:11:56Z</time></trkpt>
<trkpt lat="42.5039233" lon="2.7211260"><ele></ele><time>2022-6-4T8:11:59Z</time></trkpt>
<trkpt lat="42.5037509" lon="2.7212485"><ele></ele><time>2022-6-4T8:12:2Z</time></trkpt>
<trkpt lat="42.5035722" lon="2.7213557"><ele></ele><time>2022-6-4T8:12:5Z</time></trkpt>
<trkpt lat="42.5033923" lon="2.7214681"><ele></ele><time>2022-6-4T8:12:8Z</time></trkpt>
<trkpt lat="42.5032182" lon="2.7216337"><ele></ele><time>2022-6-4T8:12:11Z</time></trkpt>
<trkpt lat="42.5030424" lon="2.7216922"><ele></ele><time>2022-6-4T8:12:14Z</time></trkpt>
<trkpt lat="42.5028890" lon="2.7218310"><ele></ele><time>2022-6-4T8:12:17Z</time></trkpt>
<trkpt lat="42.5027169" lon="2.7219381"><ele></ele><time>2022-6-4T8:12:20Z</time></trkpt>
<trkpt lat="42.5025393" lon="2.7220208"><ele></ele><time>2022-6-4T8:12:23Z</time></trkpt>
<trkpt lat="42.5024568" lon="2.7222618"><ele></ele><time>2022-6-4T8:12:26Z</time></trkpt>
<trkpt lat="42.5022858" lon="2.7223600"><ele></ele><time>2022-6-4T8:12:29Z</time></trkpt>
<trkpt lat="42.5023744" lon="2.7226025"><ele></ele><time>2022-6-4T8:12:32Z</time></trkpt>
<trkpt lat="42.5024816" lon="2.7228673"><ele></ele><time>2022-6-4T8:12:35Z</time></trkpt>
<trkpt lat="42.5025748" lon="2.7230983"><ele></ele><time>2022-6-4T8:12:38Z</time></trkpt>
<trkpt lat="42.5027023" lon="2.7233502"><ele></ele><time>2022-6-4T8:12:41Z</time></trkpt>
<trkpt lat="42.5028418" lon="2.7235629"><ele></ele><time>2022-6-4T8:12:44Z</time></trkpt>
<trkpt lat="42.5029580" lon="2.7238329"><ele></ele><time>2022-6-4T8:12:47Z</time></trkpt>
<trkpt lat="42.5029313" lon="2.7241188"><ele></ele><time>2022-6-4T8:12:50Z</time></trkpt>
<trkpt lat="42.5028910" lon="2.7243746"><ele></ele><time>2022-6-4T8:12:53Z</time></trkpt>
<trkpt lat="42.5027471" lon="2.7246110"><ele></ele><time>2022-6-4T8:12:56Z</time></trkpt>
<trkpt lat="42.5025942" lon="2.7248206"><ele></ele><time>2022-6-4T8:12:59Z</time></trkpt>
<trkpt lat="42.5024167" lon="2.7250618"><ele></ele><time>2022-6-4T8:13:2Z</time></trkpt>
<trkpt lat="42.5022745" lon="2.7253015"><ele></ele><time>2022-6-4T8:13:5Z</time></trkpt>
<trkpt lat="42.5021650" lon="2.7255483"><ele></ele><time>2022-6-4T8:13:8Z</time></trkpt>
<trkpt lat="42.5020747" lon="2.7257703"><ele></ele><time>2022-6-4T8:13:11Z</time></trkpt>
<trkpt lat="42.5019754" lon="2.7260118"><ele></ele><time>2022-6-4T8:13:14Z</time></trkpt>
<trkpt lat="42.5018660" lon="2.7262768"><ele></ele><time>2022-6-4T8:13:17Z</time></trkpt>
<trkpt lat="42.5018553" lon="2.7265460"><ele></ele><time>2022-6-4T8:13:20Z</time></trkpt>
<trkpt lat="42.5018036" lon="2.7267923"><ele></ele><time>2022-6-4T8:13:23Z</time></trkpt>
<trkpt lat="42.5017440" lon="2.7270598"><ele></ele><time>2022-6-4T8:13:26Z</time></trkpt>
<trkpt lat="42.5016545" lon="2.7272724"><ele></ele><time>2022-6-4T8:13:29Z</time></trkpt>
<trkpt lat="42.5015601" lon="2.7274965"><ele></ele><time>2022-6-4T8:13:32Z</time></trkpt>
<trkpt lat="42.5014811" lon="2.7277909"><ele></ele><time>2022-6-4T8:13:35Z</time></trkpt>
<trkpt lat="42.5014131" lon="2.7280556"><ele></ele><time>2022-6-4T8:13:38Z</time></trkpt>
<trkpt lat="42.5013397" lon="2.7282940"><ele></ele><time>2022-6-4T8:13:41Z</time></trkpt>
<trkpt lat="42.5012895" lon="2.7285298"><ele></ele><time>2022-6-4T8:13:44Z</time></trkpt>
<trkpt lat="42.5013272" lon="2.7288027"><ele></ele><time>2022-6-4T8:13:47Z</time></trkpt>
<trkpt lat="42.5014298" lon="2.7290495"><ele></ele><time>2022-6-4T8:13:50Z</time></trkpt>
<trkpt lat="42.5013325" lon="2.7292894"><ele></ele><time>2022-6-4T8:13:53Z</time></trkpt>
<trkpt lat="42.5011682" lon="2.7294270"><ele></ele><time>2022-6-4T8:13:56Z</time></trkpt>
<trkpt lat="42.5009994" lon="2.7295394"><ele></ele><time>2022-6-4T8:13:59Z</time></trkpt>
<trkpt lat="42.5008477" lon="2.7296705"><ele></ele><time>2022-6-4T8:14:2Z</time></trkpt>
<trkpt lat="42.5007084" lon="2.7298339"><ele></ele><time>2022-6-4T8:14:5Z</time></trkpt>
<trkpt lat="42.5005835" lon="2.7300124"><ele></ele><time>2022-6-4T8:14:8Z</time></trkpt>
<trkpt lat="42.5004620" lon="2.7301959"><ele></ele><time>2022-6-4T8:14:11Z</time></trkpt>
<trkpt lat="42.5003266" lon="2.7303621"><ele></ele><time>2022-6-4T8:14:14Z</time></trkpt>
<trkpt lat="42.5002099" lon="2.7305505"><ele></ele><time>2022-6-4T8:14:17Z</time></trkpt>
<trkpt lat="42.5000843" lon="2.7307295"><ele></ele><time>2022-6-4T8:14:20Z</time></trkpt>
<trkpt lat="42.4999477" lon="2.7309170"><ele></ele><time>2022-6-4T8:14:23Z</time></trkpt>
<trkpt lat="42.4998370" lon="2.7311252"><ele></ele><time>2022-6-4T8:14:26Z</time></trkpt>
<trkpt lat="42.4997016" lon="2.7313223"><ele></ele><time>2022-6-4T8:14:29Z</time></trkpt>
<trkpt lat="42.4995842" lon="2.7315330"><ele></ele><time>2022-6-4T8:14:32Z</time></trkpt>
<trkpt lat="42.4995091" lon="2.7317791"><ele></ele><time>2022-6-4T8:14:35Z</time></trkpt>
<trkpt lat="42.4995198" lon="2.7320514"><ele></ele><time>2022-6-4T8:14:38Z</time></trkpt>
<trkpt lat="42.4993440" lon="2.7322071"><ele></ele><time>2022-6-4T8:14:41Z</time></trkpt>
<trkpt lat="42.4991860" lon="2.7323594"><ele></ele><time>2022-6-4T8:14:44Z</time></trkpt>
<trkpt lat="42.4990706" lon="2.7325652"><ele></ele><time>2022-6-4T8:14:47Z</time></trkpt>
<trkpt lat="42.4990060" lon="2.7328015"><ele></ele><time>2022-6-4T8:14:50Z</time></trkpt>
<trkpt lat="42.4988331" lon="2.7329034"><ele></ele><time>2022-6-4T8:14:53Z</time></trkpt>
<trkpt lat="42.4986515" lon="2.7328773"><ele></ele><time>2022-6-4T8:14:56Z</time></trkpt>
<trkpt lat="42.4984430" lon="2.7328999"><ele></ele><time>2022-6-4T8:14:59Z</time></trkpt>
<trkpt lat="42.4982435" lon="2.7329699"><ele></ele><time>2022-6-4T8:15:2Z</time></trkpt>
<trkpt lat="42.4983943" lon="2.7328336"><ele></ele><time>2022-6-4T8:15:5Z</time></trkpt>
<trkpt lat="42.4983904" lon="2.7325789"><ele></ele><time>2022-6-4T8:15:8Z</time></trkpt>
<trkpt lat="42.4982438" lon="2.7324271"><ele></ele><time>2022-6-4T8:15:11Z</time></trkpt>
<trkpt lat="42.4980925" lon="2.7322870"><ele></ele><time>2022-6-4T8:15:14Z</time></trkpt>
<trkpt lat="42.4979519" lon="2.7321316"><ele></ele><time>2022-6-4T8:15:17Z</time></trkpt>
<trkpt lat="42.4977780" lon="2.7320653"><ele></ele><time>2022-6-4T8:15:20Z</time></trkpt>
<trkpt lat="42.4976005" lon="2.7319962"><ele></ele><time>2022-6-4T8:15:23Z</time></trkpt>
<trkpt lat="42.4974770" lon="2.7318017"><ele></ele><time>2022-6-4T8:15:26Z</time></trkpt>
<trkpt lat="42.4975086" lon="2.7315592"><ele></ele><time>2022-6-4T8:15:29Z</time></trkpt>
<trkpt lat="42.4975537" lon="2.7312868"><ele></ele><time>2022-6-4T8:15:32Z</time></trkpt>
<trkpt lat="42.4975595" lon="2.7310149"><ele></ele><time>2022-6-4T8:15:35Z</time></trkpt>
<trkpt lat="42.4975838" lon="2.7307564"><ele></ele><time>2022-6-4T8:15:38Z</time></trkpt>
<trkpt lat="42.4976055" lon="2.7305085"><ele></ele><time>2022-6-4T8:15:41Z</time></trkpt>
<trkpt lat="42.4976455" lon="2.7302487"><ele></ele><time>2022-6-4T8:15:44Z</time></trkpt>
<trkpt lat="42.4976766" lon="2.7299768"><ele></ele><time>2022-6-4T8:15:47Z</time></trkpt>
<trkpt lat="42.4977178" lon="2.7297128"><ele></ele><time>2022-6-4T8:15:50Z</time></trkpt>
<trkpt lat="42.4977302" lon="2.7294300"><ele></ele><time>2022-6-4T8:15:53Z</time></trkpt>
<trkpt lat="42.4977513" lon="2.7291762"><ele></ele><time>2022-6-4T8:15:56Z</time></trkpt>
<trkpt lat="42.4977484" lon="2.7289117"><ele></ele><time>2022-6-4T8:15:59Z</time></trkpt>
<trkpt lat="42.4977315" lon="2.7286328"><ele></ele><time>2022-6-4T8:16:2Z</time></trkpt>
<trkpt lat="42.4977119" lon="2.7283836"><ele></ele><time>2022-6-4T8:16:5Z</time></trkpt>
<trkpt lat="42.4976855" lon="2.7281140"><ele></ele><time>2022-6-4T8:16:8Z</time></trkpt>
<trkpt lat="42.4976452" lon="2.7278355"><ele></ele><time>2022-6-4T8:16:11Z</time></trkpt>
<trkpt lat="42.4975653" lon="2.7275796"><ele></ele><time>2022-6-4T8:16:14Z</time></trkpt>
<trkpt lat="42.4974489" lon="2.7273329"><ele></ele><time>2022-6-4T8:16:17Z</time></trkpt>
<trkpt lat="42.4973925" lon="2.7270979"><ele></ele><time>2022-6-4T8:16:20Z</time></trkpt>
<trkpt lat="42.4973929" lon="2.7268428"><ele></ele><time>2022-6-4T8:16:23Z</time></trkpt>
<trkpt lat="42.4973357" lon="2.7265688"><ele></ele><time>2022-6-4T8:16:26Z</time></trkpt>
<trkpt lat="42.4971697" lon="2.7264081"><ele></ele><time>2022-6-4T8:16:29Z</time></trkpt>
<trkpt lat="42.4970553" lon="2.7262073"><ele></ele><time>2022-6-4T8:16:32Z</time></trkpt>
<trkpt lat="42.4969523" lon="2.7259385"><ele></ele><time>2022-6-4T8:16:35Z</time></trkpt>
<trkpt lat="42.4968370" lon="2.7257118"><ele></ele><time>2022-6-4T8:16:38Z</time></trkpt>
<trkpt lat="42.4967906" lon="2.7254149"><ele></ele><time>2022-6-4T8:16:41Z</time></trkpt>
<trkpt lat="42.4968062" lon="2.7251180"><ele></ele><time>2022-6-4T8:16:44Z</time></trkpt>
<trkpt lat="42.4968004" lon="2.7248517"><ele></ele><time>2022-6-4T8:16:47Z</time></trkpt>
<trkpt lat="42.4968567" lon="2.7245614"><ele></ele><time>2022-6-4T8:16:50Z</time></trkpt>
<trkpt lat="42.4969005" lon="2.7243179"><ele></ele><time>2022-6-4T8:16:53Z</time></trkpt>
<trkpt lat="42.4969346" lon="2.7240600"><ele></ele><time>2022-6-4T8:16:56Z</time></trkpt>
<trkpt lat="42.4969597" lon="2.7238117"><ele></ele><time>2022-6-4T8:16:59Z</time></trkpt>
<trkpt lat="42.4969068" lon="2.7235331"><ele></ele><time>2022-6-4T8:17:2Z</time></trkpt>
<trkpt lat="42.4967827" lon="2.7232840"><ele></ele><time>2022-6-4T8:17:5Z</time></trkpt>
<trkpt lat="42.4966599" lon="2.7230663"><ele></ele><time>2022-6-4T8:17:8Z</time></trkpt>
<trkpt lat="42.4965435" lon="2.7228431"><ele></ele><time>2022-6-4T8:17:11Z</time></trkpt>
<trkpt lat="42.4964680" lon="2.7225676"><ele></ele><time>2022-6-4T8:17:14Z</time></trkpt>
<trkpt lat="42.4964007" lon="2.7222756"><ele></ele><time>2022-6-4T8:17:17Z</time></trkpt>
<trkpt lat="42.4963523" lon="2.7220003"><ele></ele><time>2022-6-4T8:17:20Z</time></trkpt>
<trkpt lat="42.4963369" lon="2.7217261"><ele></ele><time>2022-6-4T8:17:23Z</time></trkpt>
<trkpt lat="42.4963960" lon="2.7214878"><ele></ele><time>2022-6-4T8:17:26Z</time></trkpt>
<trkpt lat="42.4965008" lon="2.7212451"><ele></ele><time>2022-6-4T8:17:29Z</time></trkpt>
<trkpt lat="42.4965575" lon="2.7209652"><ele></ele><time>2022-6-4T8:17:32Z</time></trkpt>
<trkpt lat="42.4965972" lon="2.7206638"><ele></ele><time>2022-6-4T8:17:35Z</time></trkpt>
<trkpt lat="42.4965871" lon="2.7203642"><ele></ele><time>2022-6-4T8:17:38Z</time></trkpt>
<trkpt lat="42.4965637" lon="2.7201005"><ele></ele><time>2022-6-4T8:17:41Z</time></trkpt>
<trkpt lat="42.4965466" lon="2.7198082"><ele></ele><time>2022-6-4T8:17:44Z</time></trkpt>
<trkpt lat="42.4963821" lon="2.7196530"><ele></ele><time>2022-6-4T8:17:47Z</time></trkpt>
<trkpt lat="42.4961660" lon="2.7196235"><ele></ele><time>2022-6-4T8:17:50Z</time></trkpt>
<trkpt lat="42.4959349" lon="2.7196227"><ele></ele><time>2022-6-4T8:17:53Z</time></trkpt>
<trkpt lat="42.4957083" lon="2.7196076"><ele></ele><time>2022-6-4T8:17:56Z</time></trkpt>
<trkpt lat="42.4954870" lon="2.7195450"><ele></ele><time>2022-6-4T8:17:59Z</time></trkpt>
<trkpt lat="42.4953682" lon="2.7193545"><ele></ele><time>2022-6-4T8:18:2Z</time></trkpt>
<trkpt lat="42.4952977" lon="2.7190638"><ele></ele><time>2022-6-4T8:18:5Z</time></trkpt>
<trkpt lat="42.4952793" lon="2.7187964"><ele></ele><time>2022-6-4T8:18:8Z</time></trkpt>
<trkpt lat="42.4952790" lon="2.7185294"><ele></ele><time>2022-6-4T8:18:11Z</time></trkpt>
<trkpt lat="42.4950994" lon="2.7186123"><ele></ele><time>2022-6-4T8:18:14Z</time></trkpt>
<trkpt lat="42.4949490" lon="2.7187634"><ele></ele><time>2022-6-4T8:18:17Z</time></trkpt>
<trkpt lat="42.4947833" lon="2.7189665"><ele></ele><time>2022-6-4T8:18:20Z</time></trkpt>
<trkpt lat="42.4946464" lon="2.7191407"><ele></ele><time>2022-6-4T8:18:23Z</time></trkpt>
<trkpt lat="42.4944914" lon="2.7192957"><ele></ele><time>2022-6-4T8:18:26Z</time></trkpt>
<trkpt lat="42.4943634" lon="2.7194798"><ele></ele><time>2022-6-4T8:18:29Z</time></trkpt>
<trkpt lat="42.4945048" lon="2.7193161"><ele></ele><time>2022-6-4T8:18:32Z</time></trkpt>
<trkpt lat="42.4946312" lon="2.7191344"><ele></ele><time>2022-6-4T8:18:35Z</time></trkpt>
<trkpt lat="42.4944918" lon="2.7193272"><ele></ele><time>2022-6-4T8:18:38Z</time></trkpt>
<trkpt lat="42.4943262" lon="2.7194775"><ele></ele><time>2022-6-4T8:18:41Z</time></trkpt>
<trkpt lat="42.4941602" lon="2.7196291"><ele></ele><time>2022-6-4T8:18:44Z</time></trkpt>
<trkpt lat="42.4941019" lon="2.7198637"><ele></ele><time>2022-6-4T8:18:47Z</time></trkpt>
<trkpt lat="42.4941471" lon="2.7196130"><ele></ele><time>2022-6-4T8:18:50Z</time></trkpt>
<trkpt lat="42.4941738" lon="2.7198568"><ele></ele><time>2022-6-4T8:18:53Z</time></trkpt>
<trkpt lat="42.4941315" lon="2.7200953"><ele></ele><time>2022-6-4T8:18:56Z</time></trkpt>
<trkpt lat="42.4940335" lon="2.7203190"><ele></ele><time>2022-6-4T8:18:59Z</time></trkpt>
<trkpt lat="42.4938640" lon="2.7204522"><ele></ele><time>2022-6-4T8:19:2Z</time></trkpt>
<trkpt lat="42.4937179" lon="2.7206268"><ele></ele><time>2022-6-4T8:19:5Z</time></trkpt>
<trkpt lat="42.4936223" lon="2.7208571"><ele></ele><time>2022-6-4T8:19:8Z</time></trkpt>
<trkpt lat="42.4935299" lon="2.7211102"><ele></ele><time>2022-6-4T8:19:11Z</time></trkpt>
<trkpt lat="42.4934817" lon="2.7213544"><ele></ele><time>2022-6-4T8:19:14Z</time></trkpt>
<trkpt lat="42.4934423" lon="2.7216230"><ele></ele><time>2022-6-4T8:19:17Z</time></trkpt>
<trkpt lat="42.4934095" lon="2.7218717"><ele></ele><time>2022-6-4T8:19:20Z</time></trkpt>
<trkpt lat="42.4933625" lon="2.7221475"><ele></ele><time>2022-6-4T8:19:23Z</time></trkpt>
<trkpt lat="42.4933364" lon="2.7224066"><ele></ele><time>2022-6-4T8:19:26Z</time></trkpt>
<trkpt lat="42.4933212" lon="2.7226540"><ele></ele><time>2022-6-4T8:19:29Z</time></trkpt>
<trkpt lat="42.4933325" lon="2.7229380"><ele></ele><time>2022-6-4T8:19:32Z</time></trkpt>
<trkpt lat="42.4933575" lon="2.7231956"><ele></ele><time>2022-6-4T8:19:35Z</time></trkpt>
<trkpt lat="42.4933921" lon="2.7234370"><ele></ele><time>2022-6-4T8:19:38Z</time></trkpt>
<trkpt lat="42.4934444" lon="2.7236787"><ele></ele><time>2022-6-4T8:19:41Z</time></trkpt>
<trkpt lat="42.4935006" lon="2.7239171"><ele></ele><time>2022-6-4T8:19:44Z</time></trkpt>
<trkpt lat="42.4935688" lon="2.7241932"><ele></ele><time>2022-6-4T8:19:47Z</time></trkpt>
<trkpt lat="42.4936599" lon="2.7244526"><ele></ele><time>2022-6-4T8:19:50Z</time></trkpt>
<trkpt lat="42.4937581" lon="2.7246656"><ele></ele><time>2022-6-4T8:19:53Z</time></trkpt>
<trkpt lat="42.4938428" lon="2.7249203"><ele></ele><time>2022-6-4T8:19:56Z</time></trkpt>
<trkpt lat="42.4937363" lon="2.7251179"><ele></ele><time>2022-6-4T8:19:59Z</time></trkpt>
<trkpt lat="42.4935480" lon="2.7251643"><ele></ele><time>2022-6-4T8:20:2Z</time></trkpt>
<trkpt lat="42.4933446" lon="2.7251986"><ele></ele><time>2022-6-4T8:20:5Z</time></trkpt>
<trkpt lat="42.4931842" lon="2.7250464"><ele></ele><time>2022-6-4T8:20:8Z</time></trkpt>
<trkpt lat="42.4930904" lon="2.7248379"><ele></ele><time>2022-6-4T8:20:11Z</time></trkpt>
<trkpt lat="42.4930481" lon="2.7245878"><ele></ele><time>2022-6-4T8:20:14Z</time></trkpt>
<trkpt lat="42.4930389" lon="2.7243316"><ele></ele><time>2022-6-4T8:20:17Z</time></trkpt>
<trkpt lat="42.4929941" lon="2.7240607"><ele></ele><time>2022-6-4T8:20:20Z</time></trkpt>
<trkpt lat="42.4929643" lon="2.7238009"><ele></ele><time>2022-6-4T8:20:23Z</time></trkpt>
<trkpt lat="42.4929662" lon="2.7235292"><ele></ele><time>2022-6-4T8:20:26Z</time></trkpt>
<trkpt lat="42.4929334" lon="2.7232664"><ele></ele><time>2022-6-4T8:20:29Z</time></trkpt>
<trkpt lat="42.4928650" lon="2.7230145"><ele></ele><time>2022-6-4T8:20:32Z</time></trkpt>
<trkpt lat="42.4927205" lon="2.7228568"><ele></ele><time>2022-6-4T8:20:35Z</time></trkpt>
<trkpt lat="42.4927593" lon="2.7231259"><ele></ele><time>2022-6-4T8:20:38Z</time></trkpt>
<trkpt lat="42.4928008" lon="2.7233905"><ele></ele><time>2022-6-4T8:20:41Z</time></trkpt>
<trkpt lat="42.4927704" lon="2.7236385"><ele></ele><time>2022-6-4T8:20:44Z</time></trkpt>
<trkpt lat="42.4927413" lon="2.7238989"><ele></ele><time>2022-6-4T8:20:47Z</time></trkpt>
<trkpt lat="42.4926497" lon="2.7241386"><ele></ele><time>2022-6-4T8:20:50Z</time></trkpt>
<trkpt lat="42.4926451" lon="2.7243847"><ele></ele><time>2022-6-4T8:20:53Z</time></trkpt>
<trkpt lat="42.4927250" lon="2.7246099"><ele></ele><time>2022-6-4T8:20:56Z</time></trkpt>
<trkpt lat="42.4927972" lon="2.7248704"><ele></ele><time>2022-6-4T8:20:59Z</time></trkpt>
<trkpt lat="42.4928282" lon="2.7251294"><ele></ele><time>2022-6-4T8:21:2Z</time></trkpt>
<trkpt lat="42.4928450" lon="2.7253828"><ele></ele><time>2022-6-4T8:21:5Z</time></trkpt>
<trkpt lat="42.4927156" lon="2.7255689"><ele></ele><time>2022-6-4T8:21:8Z</time></trkpt>
<trkpt lat="42.4925912" lon="2.7257528"><ele></ele><time>2022-6-4T8:21:11Z</time></trkpt>
<trkpt lat="42.4925769" lon="2.7260030"><ele></ele><time>2022-6-4T8:21:14Z</time></trkpt>
<trkpt lat="42.4924631" lon="2.7262290"><ele></ele><time>2022-6-4T8:21:17Z</time></trkpt>
<trkpt lat="42.4922974" lon="2.7263313"><ele></ele><time>2022-6-4T8:21:20Z</time></trkpt>
<trkpt lat="42.4924454" lon="2.7261586"><ele></ele><time>2022-6-4T8:21:23Z</time></trkpt>
<trkpt lat="42.4922668" lon="2.7262494"><ele></ele><time>2022-6-4T8:21:26Z</time></trkpt>
<trkpt lat="42.4920990" lon="2.7263531"><ele></ele><time>2022-6-4T8:21:29Z</time></trkpt>
<trkpt lat="42.4922901" lon="2.7262856"><ele></ele><time>2022-6-4T8:21:32Z</time></trkpt>
<trkpt lat="42.4924371" lon="2.7261348"><ele></ele><time>2022-6-4T8:21:35Z</time></trkpt>
<trkpt lat="42.4923857" lon="2.7258279"><ele></ele><time>2022-6-4T8:21:38Z</time></trkpt>
<trkpt lat="42.4922908" lon="2.7256013"><ele></ele><time>2022-6-4T8:21:41Z</time></trkpt>
<trkpt lat="42.4923411" lon="2.7253486"><ele></ele><time>2022-6-4T8:21:44Z</time></trkpt>
<trkpt lat="42.4923357" lon="2.7250846"><ele></ele><time>2022-6-4T8:21:47Z</time></trkpt>
<trkpt lat="42.4922972" lon="2.7248366"><ele></ele><time>2022-6-4T8:21:50Z</time></trkpt>
<trkpt lat="42.4922693" lon="2.7245621"><ele></ele><time>2022-6-4T8:21:53Z</time></trkpt>
<trkpt lat="42.4921883" lon="2.7243330"><ele></ele><time>2022-6-4T8:21:56Z</time></trkpt>
<trkpt lat="42.4920083" lon="2.7243732"><ele></ele><time>2022-6-4T8:21:59Z</time></trkpt>
<trkpt lat="42.4918117" lon="2.7243555"><ele></ele><time>2022-6-4T8:22:2Z</time></trkpt>
<trkpt lat="42.4916255" lon="2.7242791"><ele></ele><time>2022-6-4T8:22:5Z</time></trkpt>
<trkpt lat="42.4914281" lon="2.7242293"><ele></ele><time>2022-6-4T8:22:8Z</time></trkpt>
<trkpt lat="42.4912355" lon="2.7243189"><ele></ele><time>2022-6-4T8:22:11Z</time></trkpt>
<trkpt lat="42.4910460" lon="2.7243515"><ele></ele><time>2022-6-4T8:22:14Z</time></trkpt>
<trkpt lat="42.4908527" lon="2.7244391"><ele></ele><time>2022-6-4T8:22:17Z</time></trkpt>
<trkpt lat="42.4906688" lon="2.7245308"><ele></ele><time>2022-6-4T8:22:20Z</time></trkpt>
<trkpt lat="42.4904831" lon="2.7246271"><ele></ele><time>2022-6-4T8:22:23Z</time></trkpt>
<trkpt lat="42.4902991" lon="2.7246617"><ele></ele><time>2022-6-4T8:22:26Z</time></trkpt>
<trkpt lat="42.4901188" lon="2.7247835"><ele></ele><time>2022-6-4T8:22:29Z</time></trkpt>
<trkpt lat="42.4899647" lon="2.7249132"><ele></ele><time>2022-6-4T8:22:32Z</time></trkpt>
<trkpt lat="42.4897967" lon="2.7250091"><ele></ele><time>2022-6-4T8:22:35Z</time></trkpt>
<trkpt lat="42.4896015" lon="2.7250381"><ele></ele><time>2022-6-4T8:22:38Z</time></trkpt>
<trkpt lat="42.4894322" lon="2.7251389"><ele></ele><time>2022-6-4T8:22:41Z</time></trkpt>
<trkpt lat="42.4893280" lon="2.7253427"><ele></ele><time>2022-6-4T8:22:44Z</time></trkpt>
<trkpt lat="42.4891460" lon="2.7253872"><ele></ele><time>2022-6-4T8:22:47Z</time></trkpt>
<trkpt lat="42.4889490" lon="2.7254127"><ele></ele><time>2022-6-4T8:22:50Z</time></trkpt>
<trkpt lat="42.4887684" lon="2.7255382"><ele></ele><time>2022-6-4T8:22:53Z</time></trkpt>
<trkpt lat="42.4889576" lon="2.7256237"><ele></ele><time>2022-6-4T8:22:56Z</time></trkpt>
<trkpt lat="42.4891478" lon="2.7256450"><ele></ele><time>2022-6-4T8:22:59Z</time></trkpt>
<trkpt lat="42.4893349" lon="2.7257646"><ele></ele><time>2022-6-4T8:23:2Z</time></trkpt>
<trkpt lat="42.4895067" lon="2.7256556"><ele></ele><time>2022-6-4T8:23:5Z</time></trkpt>
<trkpt lat="42.4897022" lon="2.7256176"><ele></ele><time>2022-6-4T8:23:8Z</time></trkpt>
<trkpt lat="42.4898990" lon="2.7256609"><ele></ele><time>2022-6-4T8:23:11Z</time></trkpt>
<trkpt lat="42.4901033" lon="2.7257012"><ele></ele><time>2022-6-4T8:23:14Z</time></trkpt>
<trkpt lat="42.4902376" lon="2.7258740"><ele></ele><time>2022-6-4T8:23:17Z</time></trkpt>
<trkpt lat="42.4902662" lon="2.7261370"><ele></ele><time>2022-6-4T8:23:20Z</time></trkpt>
<trkpt lat="42.4902653" lon="2.7263870"><ele></ele><time>2022-6-4T8:23:23Z</time></trkpt>
<trkpt lat="42.4902524" lon="2.7266401"><ele></ele><time>2022-6-4T8:23:26Z</time></trkpt>
<trkpt lat="42.4901465" lon="2.7268715"><ele></ele><time>2022-6-4T8:23:29Z</time></trkpt>
<trkpt lat="42.4900030" lon="2.7270657"><ele></ele><time>2022-6-4T8:23:32Z</time></trkpt>
<trkpt lat="42.4898501" lon="2.7272011"><ele></ele><time>2022-6-4T8:23:35Z</time></trkpt>
<trkpt lat="42.4896574" lon="2.7272907"><ele></ele><time>2022-6-4T8:23:38Z</time></trkpt>
<trkpt lat="42.4894604" lon="2.7273552"><ele></ele><time>2022-6-4T8:23:41Z</time></trkpt>
<trkpt lat="42.4893008" lon="2.7275272"><ele></ele><time>2022-6-4T8:23:44Z</time></trkpt>
<trkpt lat="42.4891482" lon="2.7277132"><ele></ele><time>2022-6-4T8:23:47Z</time></trkpt>
<trkpt lat="42.4890015" lon="2.7279055"><ele></ele><time>2022-6-4T8:23:50Z</time></trkpt>
<trkpt lat="42.4888625" lon="2.7280909"><ele></ele><time>2022-6-4T8:23:53Z</time></trkpt>
<trkpt lat="42.4887278" lon="2.7282679"><ele></ele><time>2022-6-4T8:23:56Z</time></trkpt>
<trkpt lat="42.4885996" lon="2.7284692"><ele></ele><time>2022-6-4T8:23:59Z</time></trkpt>
<trkpt lat="42.4884906" lon="2.7286975"><ele></ele><time>2022-6-4T8:24:2Z</time></trkpt>
<trkpt lat="42.4884070" lon="2.7289586"><ele></ele><time>2022-6-4T8:24:5Z</time></trkpt>
<trkpt lat="42.4883465" lon="2.7292059"><ele></ele><time>2022-6-4T8:24:8Z</time></trkpt>
<trkpt lat="42.4882679" lon="2.7294290"><ele></ele><time>2022-6-4T8:24:11Z</time></trkpt>
<trkpt lat="42.4881045" lon="2.7295714"><ele></ele><time>2022-6-4T8:24:14Z</time></trkpt>
<trkpt lat="42.4879871" lon="2.7297908"><ele></ele><time>2022-6-4T8:24:17Z</time></trkpt>
<trkpt lat="42.4878667" lon="2.7299871"><ele></ele><time>2022-6-4T8:24:20Z</time></trkpt>
<trkpt lat="42.4876986" lon="2.7301280"><ele></ele><time>2022-6-4T8:24:23Z</time></trkpt>
<trkpt lat="42.4875211" lon="2.7302218"><ele></ele><time>2022-6-4T8:24:26Z</time></trkpt>
<trkpt lat="42.4873158" lon="2.7302566"><ele></ele><time>2022-6-4T8:24:29Z</time></trkpt>
<trkpt lat="42.4871161" lon="2.7303126"><ele></ele><time>2022-6-4T8:24:32Z</time></trkpt>
<trkpt lat="42.4869239" lon="2.7304043"><ele></ele><time>2022-6-4T8:24:35Z</time></trkpt>
<trkpt lat="42.4867357" lon="2.7305415"><ele></ele><time>2022-6-4T8:24:38Z</time></trkpt>
<trkpt lat="42.4865520" lon="2.7306126"><ele></ele><time>2022-6-4T8:24:41Z</time></trkpt>
<trkpt lat="42.4863520" lon="2.7305795"><ele></ele><time>2022-6-4T8:24:44Z</time></trkpt>
<trkpt lat="42.4861463" lon="2.7306201"><ele></ele><time>2022-6-4T8:24:47Z</time></trkpt>
<trkpt lat="42.4859583" lon="2.7307016"><ele></ele><time>2022-6-4T8:24:50Z</time></trkpt>
<trkpt lat="42.4858145" lon="2.7308502"><ele></ele><time>2022-6-4T8:24:53Z</time></trkpt>
<trkpt lat="42.4856064" lon="2.7308929"><ele></ele><time>2022-6-4T8:24:56Z</time></trkpt>
<trkpt lat="42.4854248" lon="2.7309046"><ele></ele><time>2022-6-4T8:24:59Z</time></trkpt>
<trkpt lat="42.4852437" lon="2.7308058"><ele></ele><time>2022-6-4T8:25:2Z</time></trkpt>
<trkpt lat="42.4850585" lon="2.7307324"><ele></ele><time>2022-6-4T8:25:5Z</time></trkpt>
<trkpt lat="42.4848679" lon="2.7306462"><ele></ele><time>2022-6-4T8:25:8Z</time></trkpt>
<trkpt lat="42.4846818" lon="2.7305528"><ele></ele><time>2022-6-4T8:25:11Z</time></trkpt>
<trkpt lat="42.4844879" lon="2.7305681"><ele></ele><time>2022-6-4T8:25:14Z</time></trkpt>
<trkpt lat="42.4843084" lon="2.7306563"><ele></ele><time>2022-6-4T8:25:17Z</time></trkpt>
<trkpt lat="42.4841427" lon="2.7308412"><ele></ele><time>2022-6-4T8:25:20Z</time></trkpt>
<trkpt lat="42.4839902" lon="2.7310168"><ele></ele><time>2022-6-4T8:25:23Z</time></trkpt>
<trkpt lat="42.4839367" lon="2.7312950"><ele></ele><time>2022-6-4T8:25:26Z</time></trkpt>
<trkpt lat="42.4838961" lon="2.7315634"><ele></ele><time>2022-6-4T8:25:29Z</time></trkpt>
<trkpt lat="42.4837361" lon="2.7317470"><ele></ele><time>2022-6-4T8:25:32Z</time></trkpt>
<trkpt lat="42.4835488" lon="2.7317661"><ele></ele><time>2022-6-4T8:25:35Z</time></trkpt>
<trkpt lat="42.4833937" lon="2.7315752"><ele></ele><time>2022-6-4T8:25:38Z</time></trkpt>
<trkpt lat="42.4831945" lon="2.7315271"><ele></ele><time>2022-6-4T8:25:41Z</time></trkpt>
<trkpt lat="42.4830041" lon="2.7314193"><ele></ele><time>2022-6-4T8:25:44Z</time></trkpt>
<trkpt lat="42.4828743" lon="2.7310891"><ele></ele><time>2022-6-4T8:25:47Z</time></trkpt>
<trkpt lat="42.4827911" lon="2.7308434"><ele></ele><time>2022-6-4T8:25:50Z</time></trkpt>
<trkpt lat="42.4826776" lon="2.7305710"><ele></ele><time>2022-6-4T8:25:53Z</time></trkpt>
<trkpt lat="42.4824898" lon="2.7304056"><ele></ele><time>2022-6-4T8:25:56Z</time></trkpt>
<trkpt lat="42.4823307" lon="2.7302179"><ele></ele><time>2022-6-4T8:25:59Z</time></trkpt>
<trkpt lat="42.4821507" lon="2.7300997"><ele></ele><time>2022-6-4T8:26:2Z</time></trkpt>
<trkpt lat="42.4819516" lon="2.7300437"><ele></ele><time>2022-6-4T8:26:5Z</time></trkpt>
<trkpt lat="42.4817578" lon="2.7299381"><ele></ele><time>2022-6-4T8:26:8Z</time></trkpt>
<trkpt lat="42.4815568" lon="2.7297565"><ele></ele><time>2022-6-4T8:26:11Z</time></trkpt>
<trkpt lat="42.4813743" lon="2.7296067"><ele></ele><time>2022-6-4T8:26:14Z</time></trkpt>
<trkpt lat="42.4811764" lon="2.7295461"><ele></ele><time>2022-6-4T8:26:17Z</time></trkpt>
<trkpt lat="42.4811191" lon="2.7298354"><ele></ele><time>2022-6-4T8:26:20Z</time></trkpt>
<trkpt lat="42.4811625" lon="2.7301001"><ele></ele><time>2022-6-4T8:26:23Z</time></trkpt>
<trkpt lat="42.4811705" lon="2.7303844"><ele></ele><time>2022-6-4T8:26:26Z</time></trkpt>
<trkpt lat="42.4811239" lon="2.7307108"><ele></ele><time>2022-6-4T8:26:29Z</time></trkpt>
<trkpt lat="42.4810296" lon="2.7310090"><ele></ele><time>2022-6-4T8:26:32Z</time></trkpt>
<trkpt lat="42.4808825" lon="2.7311793"><ele></ele><time>2022-6-4T8:26:35Z</time></trkpt>
<trkpt lat="42.4807000" lon="2.7311993"><ele></ele><time>2022-6-4T8:26:38Z</time></trkpt>
<trkpt lat="42.4804852" lon="2.7311849"><ele></ele><time>2022-6-4T8:26:41Z</time></trkpt>
<trkpt lat="42.4802878" lon="2.7311677"><ele></ele><time>2022-6-4T8:26:44Z</time></trkpt>
<trkpt lat="42.4800825" lon="2.7311051"><ele></ele><time>2022-6-4T8:26:47Z</time></trkpt>
<trkpt lat="42.4798931" lon="2.7311166"><ele></ele><time>2022-6-4T8:26:50Z</time></trkpt>
<trkpt lat="42.4796711" lon="2.7312119"><ele></ele><time>2022-6-4T8:26:53Z</time></trkpt>
<trkpt lat="42.4795260" lon="2.7313625"><ele></ele><time>2022-6-4T8:26:56Z</time></trkpt>
<trkpt lat="42.4794530" lon="2.7316434"><ele></ele><time>2022-6-4T8:26:59Z</time></trkpt>
<trkpt lat="42.4792637" lon="2.7317312"><ele></ele><time>2022-6-4T8:27:2Z</time></trkpt>
<trkpt lat="42.4793122" lon="2.7320124"><ele></ele><time>2022-6-4T8:27:5Z</time></trkpt>
<trkpt lat="42.4792991" lon="2.7323291"><ele></ele><time>2022-6-4T8:27:8Z</time></trkpt>
<trkpt lat="42.4792780" lon="2.7326122"><ele></ele><time>2022-6-4T8:27:11Z</time></trkpt>
<trkpt lat="42.4793388" lon="2.7328700"><ele></ele><time>2022-6-4T8:27:14Z</time></trkpt>
<trkpt lat="42.4793840" lon="2.7331322"><ele></ele><time>2022-6-4T8:27:17Z</time></trkpt>
<trkpt lat="42.4794175" lon="2.7333810"><ele></ele><time>2022-6-4T8:27:20Z</time></trkpt>
<trkpt lat="42.4794789" lon="2.7336163"><ele></ele><time>2022-6-4T8:27:23Z</time></trkpt>
<trkpt lat="42.4796019" lon="2.7338293"><ele></ele><time>2022-6-4T8:27:26Z</time></trkpt>
<trkpt lat="42.4796446" lon="2.7340851"><ele></ele><time>2022-6-4T8:27:29Z</time></trkpt>
<trkpt lat="42.4797044" lon="2.7343373"><ele></ele><time>2022-6-4T8:27:32Z</time></trkpt>
<trkpt lat="42.4797040" lon="2.7346133"><ele></ele><time>2022-6-4T8:27:35Z</time></trkpt>
<trkpt lat="42.4796998" lon="2.7348596"><ele></ele><time>2022-6-4T8:27:38Z</time></trkpt>
<trkpt lat="42.4797138" lon="2.7351158"><ele></ele><time>2022-6-4T8:27:41Z</time></trkpt>
<trkpt lat="42.4797259" lon="2.7353695"><ele></ele><time>2022-6-4T8:27:44Z</time></trkpt>
<trkpt lat="42.4797789" lon="2.7356399"><ele></ele><time>2022-6-4T8:27:47Z</time></trkpt>
<trkpt lat="42.4797906" lon="2.7358878"><ele></ele><time>2022-6-4T8:27:50Z</time></trkpt>
<trkpt lat="42.4797388" lon="2.7361454"><ele></ele><time>2022-6-4T8:27:53Z</time></trkpt>
<trkpt lat="42.4797280" lon="2.7364082"><ele></ele><time>2022-6-4T8:27:56Z</time></trkpt>
<trkpt lat="42.4797184" lon="2.7367029"><ele></ele><time>2022-6-4T8:27:59Z</time></trkpt>
<trkpt lat="42.4797636" lon="2.7369835"><ele></ele><time>2022-6-4T8:28:2Z</time></trkpt>
<trkpt lat="42.4797679" lon="2.7372503"><ele></ele><time>2022-6-4T8:28:5Z</time></trkpt>
<trkpt lat="42.4797310" lon="2.7375157"><ele></ele><time>2022-6-4T8:28:8Z</time></trkpt>
<trkpt lat="42.4797060" lon="2.7377776"><ele></ele><time>2022-6-4T8:28:11Z</time></trkpt>
<trkpt lat="42.4796613" lon="2.7380315"><ele></ele><time>2022-6-4T8:28:14Z</time></trkpt>
<trkpt lat="42.4796867" lon="2.7382782"><ele></ele><time>2022-6-4T8:28:17Z</time></trkpt>
<trkpt lat="42.4797295" lon="2.7385583"><ele></ele><time>2022-6-4T8:28:20Z</time></trkpt>
<trkpt lat="42.4798373" lon="2.7387815"><ele></ele><time>2022-6-4T8:28:23Z</time></trkpt>
<trkpt lat="42.4797977" lon="2.7390374"><ele></ele><time>2022-6-4T8:28:26Z</time></trkpt>
<trkpt lat="42.4797060" lon="2.7392636"><ele></ele><time>2022-6-4T8:28:29Z</time></trkpt>
<trkpt lat="42.4796078" lon="2.7394810"><ele></ele><time>2022-6-4T8:28:32Z</time></trkpt>
<trkpt lat="42.4795038" lon="2.7396839"><ele></ele><time>2022-6-4T8:28:35Z</time></trkpt>
<trkpt lat="42.4793693" lon="2.7399030"><ele></ele><time>2022-6-4T8:28:38Z</time></trkpt>
<trkpt lat="42.4792748" lon="2.7401299"><ele></ele><time>2022-6-4T8:28:41Z</time></trkpt>
<trkpt lat="42.4792442" lon="2.7404134"><ele></ele><time>2022-6-4T8:28:44Z</time></trkpt>
<trkpt lat="42.4791802" lon="2.7406937"><ele></ele><time>2022-6-4T8:28:47Z</time></trkpt>
<trkpt lat="42.4791677" lon="2.7409670"><ele></ele><time>2022-6-4T8:28:50Z</time></trkpt>
<trkpt lat="42.4791658" lon="2.7412225"><ele></ele><time>2022-6-4T8:28:53Z</time></trkpt>
<trkpt lat="42.4791918" lon="2.7414768"><ele></ele><time>2022-6-4T8:28:56Z</time></trkpt>
<trkpt lat="42.4792874" lon="2.7412400"><ele></ele><time>2022-6-4T8:28:59Z</time></trkpt>
<trkpt lat="42.4793251" lon="2.7414889"><ele></ele><time>2022-6-4T8:29:2Z</time></trkpt>
<trkpt lat="42.4793243" lon="2.7417446"><ele></ele><time>2022-6-4T8:29:5Z</time></trkpt>
<trkpt lat="42.4793907" lon="2.7420095"><ele></ele><time>2022-6-4T8:29:8Z</time></trkpt>
<trkpt lat="42.4793347" lon="2.7422891"><ele></ele><time>2022-6-4T8:29:11Z</time></trkpt>
<trkpt lat="42.4793592" lon="2.7425381"><ele></ele><time>2022-6-4T8:29:14Z</time></trkpt>
<trkpt lat="42.4794332" lon="2.7427685"><ele></ele><time>2022-6-4T8:29:17Z</time></trkpt>
<trkpt lat="42.4795209" lon="2.7430369"><ele></ele><time>2022-6-4T8:29:20Z</time></trkpt>
<trkpt lat="42.4796190" lon="2.7432806"><ele></ele><time>2022-6-4T8:29:23Z</time></trkpt>
<trkpt lat="42.4797241" lon="2.7435056"><ele></ele><time>2022-6-4T8:29:26Z</time></trkpt>
<trkpt lat="42.4798035" lon="2.7437258"><ele></ele><time>2022-6-4T8:29:29Z</time></trkpt>
<trkpt lat="42.4799023" lon="2.7439429"><ele></ele><time>2022-6-4T8:29:32Z</time></trkpt>
<trkpt lat="42.4800517" lon="2.7441382"><ele></ele><time>2022-6-4T8:29:35Z</time></trkpt>
<trkpt lat="42.4801907" lon="2.7443411"><ele></ele><time>2022-6-4T8:29:38Z</time></trkpt>
<trkpt lat="42.4803741" lon="2.7443716"><ele></ele><time>2022-6-4T8:29:41Z</time></trkpt>
<trkpt lat="42.4805726" lon="2.7443677"><ele></ele><time>2022-6-4T8:29:44Z</time></trkpt>
<trkpt lat="42.4808138" lon="2.7443458"><ele></ele><time>2022-6-4T8:29:47Z</time></trkpt>
<trkpt lat="42.4810253" lon="2.7443399"><ele></ele><time>2022-6-4T8:29:50Z</time></trkpt>
<trkpt lat="42.4812539" lon="2.7443876"><ele></ele><time>2022-6-4T8:29:53Z</time></trkpt>
<trkpt lat="42.4814849" lon="2.7444404"><ele></ele><time>2022-6-4T8:29:56Z</time></trkpt>
<trkpt lat="42.4816332" lon="2.7446204"><ele></ele><time>2022-6-4T8:29:59Z</time></trkpt>
<trkpt lat="42.4816890" lon="2.7449122"><ele></ele><time>2022-6-4T8:30:2Z</time></trkpt>
<trkpt lat="42.4818668" lon="2.7450524"><ele></ele><time>2022-6-4T8:30:5Z</time></trkpt>
<trkpt lat="42.4820567" lon="2.7450545"><ele></ele><time>2022-6-4T8:30:8Z</time></trkpt>
<trkpt lat="42.4822628" lon="2.7450499"><ele></ele><time>2022-6-4T8:30:11Z</time></trkpt>
<trkpt lat="42.4824445" lon="2.7450590"><ele></ele><time>2022-6-4T8:30:14Z</time></trkpt>
<trkpt lat="42.4826327" lon="2.7450673"><ele></ele><time>2022-6-4T8:30:17Z</time></trkpt>
<trkpt lat="42.4828052" lon="2.7452528"><ele></ele><time>2022-6-4T8:30:20Z</time></trkpt>
<trkpt lat="42.4828646" lon="2.7455151"><ele></ele><time>2022-6-4T8:30:23Z</time></trkpt>
<trkpt lat="42.4829172" lon="2.7458313"><ele></ele><time>2022-6-4T8:30:26Z</time></trkpt>
<trkpt lat="42.4830041" lon="2.7461326"><ele></ele><time>2022-6-4T8:30:29Z</time></trkpt>
<trkpt lat="42.4831434" lon="2.7463642"><ele></ele><time>2022-6-4T8:30:32Z</time></trkpt>
<trkpt lat="42.4832722" lon="2.7465923"><ele></ele><time>2022-6-4T8:30:35Z</time></trkpt>
<trkpt lat="42.4834685" lon="2.7467285"><ele></ele><time>2022-6-4T8:30:38Z</time></trkpt>
<trkpt lat="42.4836638" lon="2.7467993"><ele></ele><time>2022-6-4T8:30:41Z</time></trkpt>
<trkpt lat="42.4838684" lon="2.7468872"><ele></ele><time>2022-6-4T8:30:44Z</time></trkpt>
<trkpt lat="42.4840571" lon="2.7469356"><ele></ele><time>2022-6-4T8:30:47Z</time></trkpt>
<trkpt lat="42.4842209" lon="2.7471390"><ele></ele><time>2022-6-4T8:30:50Z</time></trkpt>
<trkpt lat="42.4843502" lon="2.7473168"><ele></ele><time>2022-6-4T8:30:53Z</time></trkpt>
<trkpt lat="42.4844676" lon="2.7475224"><ele></ele><time>2022-6-4T8:30:56Z</time></trkpt>
<trkpt lat="42.4846751" lon="2.7474667"><ele></ele><time>2022-6-4T8:30:59Z</time></trkpt>
<trkpt lat="42.4848617" lon="2.7474378"><ele></ele><time>2022-6-4T8:31:2Z</time></trkpt>
<trkpt lat="42.4850350" lon="2.7473605"><ele></ele><time>2022-6-4T8:31:5Z</time></trkpt>
<trkpt lat="42.4852359" lon="2.7472604"><ele></ele><time>2022-6-4T8:31:8Z</time></trkpt>
<trkpt lat="42.4854216" lon="2.7472098"><ele></ele><time>2022-6-4T8:31:11Z</time></trkpt>
<trkpt lat="42.4855930" lon="2.7471024"><ele></ele><time>2022-6-4T8:31:14Z</time></trkpt>
<trkpt lat="42.4854129" lon="2.7471027"><ele></ele><time>2022-6-4T8:31:17Z</time></trkpt>
<trkpt lat="42.4852361" lon="2.7472333"><ele></ele><time>2022-6-4T8:31:20Z</time></trkpt>
<trkpt lat="42.4854156" lon="2.7471052"><ele></ele><time>2022-6-4T8:31:23Z</time></trkpt>
<trkpt lat="42.4856025" lon="2.7471412"><ele></ele><time>2022-6-4T8:31:26Z</time></trkpt>
<trkpt lat="42.4856714" lon="2.7473988"><ele></ele><time>2022-6-4T8:31:29Z</time></trkpt>
<trkpt lat="42.4856946" lon="2.7471560"><ele></ele><time>2022-6-4T8:31:32Z</time></trkpt>
<trkpt lat="42.4858859" lon="2.7470686"><ele></ele><time>2022-6-4T8:31:35Z</time></trkpt>
<trkpt lat="42.4861221" lon="2.7470035"><ele></ele><time>2022-6-4T8:31:38Z</time></trkpt>
<trkpt lat="42.4863386" lon="2.7469303"><ele></ele><time>2022-6-4T8:31:41Z</time></trkpt>
<trkpt lat="42.4865707" lon="2.7468579"><ele></ele><time>2022-6-4T8:31:44Z</time></trkpt>
<trkpt lat="42.4867880" lon="2.7468814"><ele></ele><time>2022-6-4T8:31:47Z</time></trkpt>
<trkpt lat="42.4869946" lon="2.7468948"><ele></ele><time>2022-6-4T8:31:50Z</time></trkpt>
<trkpt lat="42.4871967" lon="2.7469219"><ele></ele><time>2022-6-4T8:31:53Z</time></trkpt>
<trkpt lat="42.4873798" lon="2.7469581"><ele></ele><time>2022-6-4T8:31:56Z</time></trkpt>
<trkpt lat="42.4875880" lon="2.7469965"><ele></ele><time>2022-6-4T8:31:59Z</time></trkpt>
<trkpt lat="42.4877691" lon="2.7470302"><ele></ele><time>2022-6-4T8:32:2Z</time></trkpt>
<trkpt lat="42.4879555" lon="2.7470454"><ele></ele><time>2022-6-4T8:32:5Z</time></trkpt>
<trkpt lat="42.4881534" lon="2.7471035"><ele></ele><time>2022-6-4T8:32:8Z</time></trkpt>
<trkpt lat="42.4883431" lon="2.7471208"><ele></ele><time>2022-6-4T8:32:11Z</time></trkpt>
<trkpt lat="42.4885395" lon="2.7471654"><ele></ele><time>2022-6-4T8:32:14Z</time></trkpt>
<trkpt lat="42.4887212" lon="2.7472548"><ele></ele><time>2022-6-4T8:32:17Z</time></trkpt>
<trkpt lat="42.4889050" lon="2.7473817"><ele></ele><time>2022-6-4T8:32:20Z</time></trkpt>
<trkpt lat="42.4891025" lon="2.7474243"><ele></ele><time>2022-6-4T8:32:23Z</time></trkpt>
<trkpt lat="42.4892678" lon="2.7473200"><ele></ele><time>2022-6-4T8:32:26Z</time></trkpt>
<trkpt lat="42.4894412" lon="2.7472181"><ele></ele><time>2022-6-4T8:32:29Z</time></trkpt>
<trkpt lat="42.4896153" lon="2.7471027"><ele></ele><time>2022-6-4T8:32:32Z</time></trkpt>
<trkpt lat="42.4898131" lon="2.7470937"><ele></ele><time>2022-6-4T8:32:35Z</time></trkpt>
<trkpt lat="42.4899283" lon="2.7468502"><ele></ele><time>2022-6-4T8:32:38Z</time></trkpt>
<trkpt lat="42.4901247" lon="2.7467831"><ele></ele><time>2022-6-4T8:32:41Z</time></trkpt>
<trkpt lat="42.4903190" lon="2.7467578"><ele></ele><time>2022-6-4T8:32:44Z</time></trkpt>
<trkpt lat="42.4905033" lon="2.7467014"><ele></ele><time>2022-6-4T8:32:47Z</time></trkpt>
<trkpt lat="42.4906701" lon="2.7465812"><ele></ele><time>2022-6-4T8:32:50Z</time></trkpt>
<trkpt lat="42.4908651" lon="2.7465168"><ele></ele><time>2022-6-4T8:32:53Z</time></trkpt>
<trkpt lat="42.4910218" lon="2.7463527"><ele></ele><time>2022-6-4T8:32:56Z</time></trkpt>
<trkpt lat="42.4912005" lon="2.7462587"><ele></ele><time>2022-6-4T8:32:59Z</time></trkpt>
<trkpt lat="42.4913880" lon="2.7462001"><ele></ele><time>2022-6-4T8:33:2Z</time></trkpt>
<trkpt lat="42.4915726" lon="2.7461353"><ele></ele><time>2022-6-4T8:33:5Z</time></trkpt>
<trkpt lat="42.4917801" lon="2.7460379"><ele></ele><time>2022-6-4T8:33:8Z</time></trkpt>
<trkpt lat="42.4919793" lon="2.7460520"><ele></ele><time>2022-6-4T8:33:11Z</time></trkpt>
<trkpt lat="42.4920722" lon="2.7462785"><ele></ele><time>2022-6-4T8:33:14Z</time></trkpt>
<trkpt lat="42.4921560" lon="2.7460549"><ele></ele><time>2022-6-4T8:33:17Z</time></trkpt>
<trkpt lat="42.4920229" lon="2.7458826"><ele></ele><time>2022-6-4T8:33:20Z</time></trkpt>
<trkpt lat="42.4921209" lon="2.7456556"><ele></ele><time>2022-6-4T8:33:23Z</time></trkpt>
<trkpt lat="42.4923627" lon="2.7456603"><ele></ele><time>2022-6-4T8:33:26Z</time></trkpt>
<trkpt lat="42.4925436" lon="2.7457736"><ele></ele><time>2022-6-4T8:33:29Z</time></trkpt>
<trkpt lat="42.4927589" lon="2.7458479"><ele></ele><time>2022-6-4T8:33:32Z</time></trkpt>
<trkpt lat="42.4929787" lon="2.7457932"><ele></ele><time>2022-6-4T8:33:35Z</time></trkpt>
<trkpt lat="42.4931946" lon="2.7456621"><ele></ele><time>2022-6-4T8:33:38Z</time></trkpt>
<trkpt lat="42.4932841" lon="2.7454453"><ele></ele><time>2022-6-4T8:33:41Z</time></trkpt>
<trkpt lat="42.4934443" lon="2.7453077"><ele></ele><time>2022-6-4T8:33:44Z</time></trkpt>
<trkpt lat="42.4936245" lon="2.7453223"><ele></ele><time>2022-6-4T8:33:47Z</time></trkpt>
<trkpt lat="42.4938002" lon="2.7454231"><ele></ele><time>2022-6-4T8:33:50Z</time></trkpt>
<trkpt lat="42.4939793" lon="2.7455119"><ele></ele><time>2022-6-4T8:33:53Z</time></trkpt>
<trkpt lat="42.4941754" lon="2.7455604"><ele></ele><time>2022-6-4T8:33:56Z</time></trkpt>
<trkpt lat="42.4943562" lon="2.7455547"><ele></ele><time>2022-6-4T8:33:59Z</time></trkpt>
<trkpt lat="42.4944481" lon="2.7453181"><ele></ele><time>2022-6-4T8:34:2Z</time></trkpt>
<trkpt lat="42.4944944" lon="2.7450575"><ele></ele><time>2022-6-4T8:34:5Z</time></trkpt>
<trkpt lat="42.4946274" lon="2.7448520"><ele></ele><time>2022-6-4T8:34:8Z</time></trkpt>
<trkpt lat="42.4946538" lon="2.7445976"><ele></ele><time>2022-6-4T8:34:11Z</time></trkpt>
<trkpt lat="42.4946408" lon="2.7443473"><ele></ele><time>2022-6-4T8:34:14Z</time></trkpt>
<trkpt lat="42.4944567" lon="2.7443237"><ele></ele><time>2022-6-4T8:34:17Z</time></trkpt>
<trkpt lat="42.4945028" lon="2.7440742"><ele></ele><time>2022-6-4T8:34:20Z</time></trkpt>
<trkpt lat="42.4946678" lon="2.7439682"><ele></ele><time>2022-6-4T8:34:23Z</time></trkpt>
<trkpt lat="42.4948420" lon="2.7439031"><ele></ele><time>2022-6-4T8:34:26Z</time></trkpt>
<trkpt lat="42.4950191" lon="2.7439787"><ele></ele><time>2022-6-4T8:34:29Z</time></trkpt>
<trkpt lat="42.4951718" lon="2.7441613"><ele></ele><time>2022-6-4T8:34:32Z</time></trkpt>
<trkpt lat="42.4953546" lon="2.7442840"><ele></ele><time>2022-6-4T8:34:35Z</time></trkpt>
<trkpt lat="42.4955377" lon="2.7444140"><ele></ele><time>2022-6-4T8:34:38Z</time></trkpt>
<trkpt lat="42.4956988" lon="2.7445390"><ele></ele><time>2022-6-4T8:34:41Z</time></trkpt>
<trkpt lat="42.4958627" lon="2.7446784"><ele></ele><time>2022-6-4T8:34:44Z</time></trkpt>
<trkpt lat="42.4960618" lon="2.7446377"><ele></ele><time>2022-6-4T8:34:47Z</time></trkpt>
<trkpt lat="42.4961844" lon="2.7448501"><ele></ele><time>2022-6-4T8:34:50Z</time></trkpt>
<trkpt lat="42.4963647" lon="2.7449662"><ele></ele><time>2022-6-4T8:34:53Z</time></trkpt>
<trkpt lat="42.4965537" lon="2.7450015"><ele></ele><time>2022-6-4T8:34:56Z</time></trkpt>
<trkpt lat="42.4967603" lon="2.7450249"><ele></ele><time>2022-6-4T8:34:59Z</time></trkpt>
<trkpt lat="42.4969599" lon="2.7450203"><ele></ele><time>2022-6-4T8:35:2Z</time></trkpt>
<trkpt lat="42.4971378" lon="2.7450605"><ele></ele><time>2022-6-4T8:35:5Z</time></trkpt>
<trkpt lat="42.4972938" lon="2.7452513"><ele></ele><time>2022-6-4T8:35:8Z</time></trkpt>
<trkpt lat="42.4974067" lon="2.7454483"><ele></ele><time>2022-6-4T8:35:11Z</time></trkpt>
<trkpt lat="42.4975347" lon="2.7456239"><ele></ele><time>2022-6-4T8:35:14Z</time></trkpt>
<trkpt lat="42.4976755" lon="2.7457942"><ele></ele><time>2022-6-4T8:35:17Z</time></trkpt>
<trkpt lat="42.4978343" lon="2.7459587"><ele></ele><time>2022-6-4T8:35:20Z</time></trkpt>
<trkpt lat="42.4980058" lon="2.7461087"><ele></ele><time>2022-6-4T8:35:23Z</time></trkpt>
<trkpt lat="42.4981869" lon="2.7460480"><ele></ele><time>2022-6-4T8:35:26Z</time></trkpt>
<trkpt lat="42.4981228" lon="2.7457999"><ele></ele><time>2022-6-4T8:35:29Z</time></trkpt>
<trkpt lat="42.4980476" lon="2.7455450"><ele></ele><time>2022-6-4T8:35:32Z</time></trkpt>
<trkpt lat="42.4979627" lon="2.7452882"><ele></ele><time>2022-6-4T8:35:35Z</time></trkpt>
<trkpt lat="42.4978673" lon="2.7450684"><ele></ele><time>2022-6-4T8:35:38Z</time></trkpt>
<trkpt lat="42.4977649" lon="2.7448439"><ele></ele><time>2022-6-4T8:35:41Z</time></trkpt>
<trkpt lat="42.4976407" lon="2.7446329"><ele></ele><time>2022-6-4T8:35:44Z</time></trkpt>
<trkpt lat="42.4975059" lon="2.7444139"><ele></ele><time>2022-6-4T8:35:47Z</time></trkpt>
<trkpt lat="42.4973555" lon="2.7442092"><ele></ele><time>2022-6-4T8:35:50Z</time></trkpt>
<trkpt lat="42.4972056" lon="2.7440432"><ele></ele><time>2022-6-4T8:35:53Z</time></trkpt>
<trkpt lat="42.4970359" lon="2.7438532"><ele></ele><time>2022-6-4T8:35:56Z</time></trkpt>
<trkpt lat="42.4969086" lon="2.7436756"><ele></ele><time>2022-6-4T8:35:59Z</time></trkpt>
<trkpt lat="42.4967402" lon="2.7437965"><ele></ele><time>2022-6-4T8:36:2Z</time></trkpt>
<trkpt lat="42.4966177" lon="2.7439797"><ele></ele><time>2022-6-4T8:36:5Z</time></trkpt>
<trkpt lat="42.4964745" lon="2.7441448"><ele></ele><time>2022-6-4T8:36:8Z</time></trkpt>
<trkpt lat="42.4962880" lon="2.7441801"><ele></ele><time>2022-6-4T8:36:11Z</time></trkpt>
<trkpt lat="42.4962972" lon="2.7444292"><ele></ele><time>2022-6-4T8:36:14Z</time></trkpt>
<trkpt lat="42.4961699" lon="2.7446525"><ele></ele><time>2022-6-4T8:36:17Z</time></trkpt>
<trkpt lat="42.4959667" lon="2.7446101"><ele></ele><time>2022-6-4T8:36:20Z</time></trkpt>
<trkpt lat="42.4960333" lon="2.7448704"><ele></ele><time>2022-6-4T8:36:23Z</time></trkpt>
<trkpt lat="42.4960832" lon="2.7451167"><ele></ele><time>2022-6-4T8:36:26Z</time></trkpt>
<trkpt lat="42.4961829" lon="2.7453293"><ele></ele><time>2022-6-4T8:36:29Z</time></trkpt>
<trkpt lat="42.4963113" lon="2.7455497"><ele></ele><time>2022-6-4T8:36:32Z</time></trkpt>
<trkpt lat="42.4964049" lon="2.7457879"><ele></ele><time>2022-6-4T8:36:35Z</time></trkpt>
<trkpt lat="42.4964857" lon="2.7460122"><ele></ele><time>2022-6-4T8:36:38Z</time></trkpt>
<trkpt lat="42.4965715" lon="2.7462425"><ele></ele><time>2022-6-4T8:36:41Z</time></trkpt>
<trkpt lat="42.4967032" lon="2.7464474"><ele></ele><time>2022-6-4T8:36:44Z</time></trkpt>
<trkpt lat="42.4967899" lon="2.7466823"><ele></ele><time>2022-6-4T8:36:47Z</time></trkpt>
<trkpt lat="42.4968991" lon="2.7468810"><ele></ele><time>2022-6-4T8:36:50Z</time></trkpt>
<trkpt lat="42.4970074" lon="2.7471178"><ele></ele><time>2022-6-4T8:36:53Z</time></trkpt>
<trkpt lat="42.4970980" lon="2.7473294"><ele></ele><time>2022-6-4T8:36:56Z</time></trkpt>
<trkpt lat="42.4972058" lon="2.7475585"><ele></ele><time>2022-6-4T8:36:59Z</time></trkpt>
<trkpt lat="42.4972871" lon="2.7478005"><ele></ele><time>2022-6-4T8:37:2Z</time></trkpt>
<trkpt lat="42.4973329" lon="2.7480547"><ele></ele><time>2022-6-4T8:37:5Z</time></trkpt>
<trkpt lat="42.4974297" lon="2.7482815"><ele></ele><time>2022-6-4T8:37:8Z</time></trkpt>
<trkpt lat="42.4975291" lon="2.7485279"><ele></ele><time>2022-6-4T8:37:11Z</time></trkpt>
<trkpt lat="42.4976608" lon="2.7487445"><ele></ele><time>2022-6-4T8:37:14Z</time></trkpt>
<trkpt lat="42.4977651" lon="2.7489691"><ele></ele><time>2022-6-4T8:37:17Z</time></trkpt>
<trkpt lat="42.4978715" lon="2.7492293"><ele></ele><time>2022-6-4T8:37:20Z</time></trkpt>
<trkpt lat="42.4979717" lon="2.7494558"><ele></ele><time>2022-6-4T8:37:23Z</time></trkpt>
<trkpt lat="42.4981014" lon="2.7496700"><ele></ele><time>2022-6-4T8:37:26Z</time></trkpt>
<trkpt lat="42.4982271" lon="2.7498712"><ele></ele><time>2022-6-4T8:37:29Z</time></trkpt>
<trkpt lat="42.4983673" lon="2.7500883"><ele></ele><time>2022-6-4T8:37:32Z</time></trkpt>
<trkpt lat="42.4985089" lon="2.7503016"><ele></ele><time>2022-6-4T8:37:35Z</time></trkpt>
<trkpt lat="42.4986377" lon="2.7504867"><ele></ele><time>2022-6-4T8:37:38Z</time></trkpt>
<trkpt lat="42.4987747" lon="2.7507118"><ele></ele><time>2022-6-4T8:37:41Z</time></trkpt>
<trkpt lat="42.4989031" lon="2.7509348"><ele></ele><time>2022-6-4T8:37:44Z</time></trkpt>
<trkpt lat="42.4989997" lon="2.7511659"><ele></ele><time>2022-6-4T8:37:47Z</time></trkpt>
<trkpt lat="42.4990979" lon="2.7513739"><ele></ele><time>2022-6-4T8:37:50Z</time></trkpt>
<trkpt lat="42.4991888" lon="2.7516298"><ele></ele><time>2022-6-4T8:37:53Z</time></trkpt>
<trkpt lat="42.4992935" lon="2.7518374"><ele></ele><time>2022-6-4T8:37:56Z</time></trkpt>
<trkpt lat="42.4994661" lon="2.7519370"><ele></ele><time>2022-6-4T8:37:59Z</time></trkpt>
</trkseg></trk></gpx>